<?xml version="1.0" encoding="UTF-8" standalone="no" ?>
<gpx xmlns="http://www.topografix.com/GPX/1/1" xmlns:xsi="http://www.w3.org/2001/XMLSchema-instance" xsi:schemaLocation="http://www.topografix.com/GPX/1/1 http://www.topografix.com/GPX/1/1/gpx.xsd" version="1.1" creator="VisuGPX - https://www.visugpx.com">
  <metadata>
    <name>20210214_100600.gpx</name>
  </metadata>
  <trk>
    <name><![CDATA[20210214_100600.gpx]]></name>
    <trkseg>
      <trkpt lat="46.26697" lon="6.84833">
        <ele>1534</ele>
        <time>2021-02-14T09:06:01Z</time>
      </trkpt>
      <trkpt lat="46.26696" lon="6.84829">
        <ele>1536</ele>
        <time>2021-02-14T09:06:43Z</time>
      </trkpt>
      <trkpt lat="46.26689" lon="6.84832">
        <ele>1536</ele>
        <time>2021-02-14T09:06:53Z</time>
      </trkpt>
      <trkpt lat="46.26681" lon="6.84834">
        <ele>1536</ele>
        <time>2021-02-14T09:07:03Z</time>
      </trkpt>
      <trkpt lat="46.26674" lon="6.84838">
        <ele>1536</ele>
        <time>2021-02-14T09:07:13Z</time>
      </trkpt>
      <trkpt lat="46.26667" lon="6.84842">
        <ele>1536</ele>
        <time>2021-02-14T09:07:23Z</time>
      </trkpt>
      <trkpt lat="46.26665" lon="6.84852">
        <ele>1537</ele>
        <time>2021-02-14T09:07:33Z</time>
      </trkpt>
      <trkpt lat="46.26667" lon="6.84859">
        <ele>1540</ele>
        <time>2021-02-14T09:07:43Z</time>
      </trkpt>
      <trkpt lat="46.26673" lon="6.84867">
        <ele>1543</ele>
        <time>2021-02-14T09:07:53Z</time>
      </trkpt>
      <trkpt lat="46.2668" lon="6.84871">
        <ele>1545</ele>
        <time>2021-02-14T09:08:03Z</time>
      </trkpt>
      <trkpt lat="46.26688" lon="6.84877">
        <ele>1546</ele>
        <time>2021-02-14T09:08:13Z</time>
      </trkpt>
      <trkpt lat="46.26693" lon="6.84883">
        <ele>1545</ele>
        <time>2021-02-14T09:08:18Z</time>
      </trkpt>
      <trkpt lat="46.26696" lon="6.84888">
        <ele>1546</ele>
        <time>2021-02-14T09:08:23Z</time>
      </trkpt>
      <trkpt lat="46.26698" lon="6.84897">
        <ele>1547</ele>
        <time>2021-02-14T09:08:32Z</time>
      </trkpt>
      <trkpt lat="46.267" lon="6.84908">
        <ele>1549</ele>
        <time>2021-02-14T09:08:43Z</time>
      </trkpt>
      <trkpt lat="46.26699" lon="6.84921">
        <ele>1551</ele>
        <time>2021-02-14T09:08:53Z</time>
      </trkpt>
      <trkpt lat="46.26699" lon="6.84932">
        <ele>1552</ele>
        <time>2021-02-14T09:09:03Z</time>
      </trkpt>
      <trkpt lat="46.26701" lon="6.84944">
        <ele>1552</ele>
        <time>2021-02-14T09:09:13Z</time>
      </trkpt>
      <trkpt lat="46.26702" lon="6.84955">
        <ele>1553</ele>
        <time>2021-02-14T09:09:23Z</time>
      </trkpt>
      <trkpt lat="46.26705" lon="6.84969">
        <ele>1553</ele>
        <time>2021-02-14T09:09:33Z</time>
      </trkpt>
      <trkpt lat="46.26706" lon="6.8498">
        <ele>1552</ele>
        <time>2021-02-14T09:09:43Z</time>
      </trkpt>
      <trkpt lat="46.26709" lon="6.84991">
        <ele>1553</ele>
        <time>2021-02-14T09:09:53Z</time>
      </trkpt>
      <trkpt lat="46.26711" lon="6.85005">
        <ele>1557</ele>
        <time>2021-02-14T09:10:03Z</time>
      </trkpt>
      <trkpt lat="46.26711" lon="6.85019">
        <ele>1560</ele>
        <time>2021-02-14T09:10:13Z</time>
      </trkpt>
      <trkpt lat="46.26711" lon="6.85033">
        <ele>1560</ele>
        <time>2021-02-14T09:10:23Z</time>
      </trkpt>
      <trkpt lat="46.26708" lon="6.85044">
        <ele>1561</ele>
        <time>2021-02-14T09:10:33Z</time>
      </trkpt>
      <trkpt lat="46.26703" lon="6.85053">
        <ele>1562</ele>
        <time>2021-02-14T09:10:43Z</time>
      </trkpt>
      <trkpt lat="46.26697" lon="6.85062">
        <ele>1563</ele>
        <time>2021-02-14T09:10:53Z</time>
      </trkpt>
      <trkpt lat="46.26691" lon="6.8507">
        <ele>1562</ele>
        <time>2021-02-14T09:11:02Z</time>
      </trkpt>
      <trkpt lat="46.26687" lon="6.85075">
        <ele>1563</ele>
        <time>2021-02-14T09:11:08Z</time>
      </trkpt>
      <trkpt lat="46.26682" lon="6.85086">
        <ele>1565</ele>
        <time>2021-02-14T09:11:18Z</time>
      </trkpt>
      <trkpt lat="46.26679" lon="6.85091">
        <ele>1565</ele>
        <time>2021-02-14T09:11:23Z</time>
      </trkpt>
      <trkpt lat="46.26675" lon="6.85104">
        <ele>1568</ele>
        <time>2021-02-14T09:11:33Z</time>
      </trkpt>
      <trkpt lat="46.26674" lon="6.85117">
        <ele>1570</ele>
        <time>2021-02-14T09:11:43Z</time>
      </trkpt>
      <trkpt lat="46.26676" lon="6.85129">
        <ele>1570</ele>
        <time>2021-02-14T09:11:53Z</time>
      </trkpt>
      <trkpt lat="46.26677" lon="6.85143">
        <ele>1572</ele>
        <time>2021-02-14T09:12:03Z</time>
      </trkpt>
      <trkpt lat="46.26678" lon="6.85156">
        <ele>1574</ele>
        <time>2021-02-14T09:12:13Z</time>
      </trkpt>
      <trkpt lat="46.26679" lon="6.8517">
        <ele>1577</ele>
        <time>2021-02-14T09:12:23Z</time>
      </trkpt>
      <trkpt lat="46.26679" lon="6.85183">
        <ele>1577</ele>
        <time>2021-02-14T09:12:33Z</time>
      </trkpt>
      <trkpt lat="46.2668" lon="6.85197">
        <ele>1577</ele>
        <time>2021-02-14T09:12:43Z</time>
      </trkpt>
      <trkpt lat="46.26681" lon="6.85207">
        <ele>1577</ele>
        <time>2021-02-14T09:12:53Z</time>
      </trkpt>
      <trkpt lat="46.26681" lon="6.85222">
        <ele>1576</ele>
        <time>2021-02-14T09:13:03Z</time>
      </trkpt>
      <trkpt lat="46.26681" lon="6.85235">
        <ele>1576</ele>
        <time>2021-02-14T09:13:13Z</time>
      </trkpt>
      <trkpt lat="46.26681" lon="6.85247">
        <ele>1578</ele>
        <time>2021-02-14T09:13:23Z</time>
      </trkpt>
      <trkpt lat="46.2668" lon="6.85259">
        <ele>1579</ele>
        <time>2021-02-14T09:13:32Z</time>
      </trkpt>
      <trkpt lat="46.26679" lon="6.85273">
        <ele>1579</ele>
        <time>2021-02-14T09:13:43Z</time>
      </trkpt>
      <trkpt lat="46.2668" lon="6.85285">
        <ele>1581</ele>
        <time>2021-02-14T09:13:53Z</time>
      </trkpt>
      <trkpt lat="46.26679" lon="6.853">
        <ele>1580</ele>
        <time>2021-02-14T09:14:03Z</time>
      </trkpt>
      <trkpt lat="46.26677" lon="6.85311">
        <ele>1582</ele>
        <time>2021-02-14T09:14:13Z</time>
      </trkpt>
      <trkpt lat="46.26676" lon="6.85323">
        <ele>1584</ele>
        <time>2021-02-14T09:14:23Z</time>
      </trkpt>
      <trkpt lat="46.26675" lon="6.85335">
        <ele>1586</ele>
        <time>2021-02-14T09:14:33Z</time>
      </trkpt>
      <trkpt lat="46.26675" lon="6.85345">
        <ele>1588</ele>
        <time>2021-02-14T09:14:43Z</time>
      </trkpt>
      <trkpt lat="46.26674" lon="6.85352">
        <ele>1588</ele>
        <time>2021-02-14T09:14:53Z</time>
      </trkpt>
      <trkpt lat="46.26674" lon="6.85359">
        <ele>1591</ele>
        <time>2021-02-14T09:15:03Z</time>
      </trkpt>
      <trkpt lat="46.26675" lon="6.85368">
        <ele>1591</ele>
        <time>2021-02-14T09:15:13Z</time>
      </trkpt>
      <trkpt lat="46.26677" lon="6.85378">
        <ele>1595</ele>
        <time>2021-02-14T09:15:23Z</time>
      </trkpt>
      <trkpt lat="46.26678" lon="6.85388">
        <ele>1596</ele>
        <time>2021-02-14T09:15:33Z</time>
      </trkpt>
      <trkpt lat="46.26679" lon="6.85397">
        <ele>1597</ele>
        <time>2021-02-14T09:15:43Z</time>
      </trkpt>
      <trkpt lat="46.2668" lon="6.85407">
        <ele>1600</ele>
        <time>2021-02-14T09:15:58Z</time>
      </trkpt>
      <trkpt lat="46.26679" lon="6.85412">
        <ele>1601</ele>
        <time>2021-02-14T09:16:03Z</time>
      </trkpt>
      <trkpt lat="46.26678" lon="6.8542">
        <ele>1603</ele>
        <time>2021-02-14T09:16:13Z</time>
      </trkpt>
      <trkpt lat="46.26678" lon="6.85427">
        <ele>1604</ele>
        <time>2021-02-14T09:16:23Z</time>
      </trkpt>
      <trkpt lat="46.26678" lon="6.85438">
        <ele>1607</ele>
        <time>2021-02-14T09:16:38Z</time>
      </trkpt>
      <trkpt lat="46.26677" lon="6.85446">
        <ele>1609</ele>
        <time>2021-02-14T09:16:48Z</time>
      </trkpt>
      <trkpt lat="46.26678" lon="6.85459">
        <ele>1611</ele>
        <time>2021-02-14T09:17:03Z</time>
      </trkpt>
      <trkpt lat="46.26677" lon="6.8547">
        <ele>1614</ele>
        <time>2021-02-14T09:17:18Z</time>
      </trkpt>
      <trkpt lat="46.26677" lon="6.85474">
        <ele>1615</ele>
        <time>2021-02-14T09:17:23Z</time>
      </trkpt>
      <trkpt lat="46.26676" lon="6.85483">
        <ele>1616</ele>
        <time>2021-02-14T09:17:33Z</time>
      </trkpt>
      <trkpt lat="46.26676" lon="6.8549">
        <ele>1617</ele>
        <time>2021-02-14T09:17:43Z</time>
      </trkpt>
      <trkpt lat="46.26675" lon="6.85498">
        <ele>1620</ele>
        <time>2021-02-14T09:17:53Z</time>
      </trkpt>
      <trkpt lat="46.26674" lon="6.85507">
        <ele>1623</ele>
        <time>2021-02-14T09:18:03Z</time>
      </trkpt>
      <trkpt lat="46.26673" lon="6.85515">
        <ele>1624</ele>
        <time>2021-02-14T09:18:13Z</time>
      </trkpt>
      <trkpt lat="46.26672" lon="6.85524">
        <ele>1626</ele>
        <time>2021-02-14T09:18:23Z</time>
      </trkpt>
      <trkpt lat="46.2667" lon="6.85533">
        <ele>1628</ele>
        <time>2021-02-14T09:18:32Z</time>
      </trkpt>
      <trkpt lat="46.26669" lon="6.85542">
        <ele>1630</ele>
        <time>2021-02-14T09:18:43Z</time>
      </trkpt>
      <trkpt lat="46.2667" lon="6.85553">
        <ele>1630</ele>
        <time>2021-02-14T09:18:53Z</time>
      </trkpt>
      <trkpt lat="46.26668" lon="6.85564">
        <ele>1631</ele>
        <time>2021-02-14T09:19:03Z</time>
      </trkpt>
      <trkpt lat="46.26669" lon="6.85574">
        <ele>1631</ele>
        <time>2021-02-14T09:19:13Z</time>
      </trkpt>
      <trkpt lat="46.26667" lon="6.85585">
        <ele>1633</ele>
        <time>2021-02-14T09:19:23Z</time>
      </trkpt>
      <trkpt lat="46.26664" lon="6.85596">
        <ele>1634</ele>
        <time>2021-02-14T09:19:33Z</time>
      </trkpt>
      <trkpt lat="46.26663" lon="6.85609">
        <ele>1637</ele>
        <time>2021-02-14T09:19:43Z</time>
      </trkpt>
      <trkpt lat="46.26662" lon="6.85621">
        <ele>1638</ele>
        <time>2021-02-14T09:19:53Z</time>
      </trkpt>
      <trkpt lat="46.26662" lon="6.85633">
        <ele>1637</ele>
        <time>2021-02-14T09:20:03Z</time>
      </trkpt>
      <trkpt lat="46.26661" lon="6.85644">
        <ele>1639</ele>
        <time>2021-02-14T09:20:13Z</time>
      </trkpt>
      <trkpt lat="46.26661" lon="6.85656">
        <ele>1641</ele>
        <time>2021-02-14T09:20:23Z</time>
      </trkpt>
      <trkpt lat="46.26662" lon="6.85666">
        <ele>1643</ele>
        <time>2021-02-14T09:20:33Z</time>
      </trkpt>
      <trkpt lat="46.26664" lon="6.85674">
        <ele>1643</ele>
        <time>2021-02-14T09:20:43Z</time>
      </trkpt>
      <trkpt lat="46.26667" lon="6.85682">
        <ele>1646</ele>
        <time>2021-02-14T09:20:53Z</time>
      </trkpt>
      <trkpt lat="46.26668" lon="6.85689">
        <ele>1647</ele>
        <time>2021-02-14T09:21:02Z</time>
      </trkpt>
      <trkpt lat="46.26667" lon="6.85694">
        <ele>1648</ele>
        <time>2021-02-14T09:21:08Z</time>
      </trkpt>
      <trkpt lat="46.26669" lon="6.85704">
        <ele>1650</ele>
        <time>2021-02-14T09:21:18Z</time>
      </trkpt>
      <trkpt lat="46.26669" lon="6.85709">
        <ele>1650</ele>
        <time>2021-02-14T09:21:23Z</time>
      </trkpt>
      <trkpt lat="46.26672" lon="6.85717">
        <ele>1652</ele>
        <time>2021-02-14T09:21:33Z</time>
      </trkpt>
      <trkpt lat="46.26672" lon="6.85726">
        <ele>1654</ele>
        <time>2021-02-14T09:21:43Z</time>
      </trkpt>
      <trkpt lat="46.26674" lon="6.85735">
        <ele>1655</ele>
        <time>2021-02-14T09:21:53Z</time>
      </trkpt>
      <trkpt lat="46.26674" lon="6.85744">
        <ele>1657</ele>
        <time>2021-02-14T09:22:03Z</time>
      </trkpt>
      <trkpt lat="46.26675" lon="6.85755">
        <ele>1660</ele>
        <time>2021-02-14T09:22:13Z</time>
      </trkpt>
      <trkpt lat="46.26675" lon="6.85763">
        <ele>1662</ele>
        <time>2021-02-14T09:22:23Z</time>
      </trkpt>
      <trkpt lat="46.26675" lon="6.85773">
        <ele>1664</ele>
        <time>2021-02-14T09:22:33Z</time>
      </trkpt>
      <trkpt lat="46.26674" lon="6.85781">
        <ele>1667</ele>
        <time>2021-02-14T09:22:43Z</time>
      </trkpt>
      <trkpt lat="46.26674" lon="6.85791">
        <ele>1668</ele>
        <time>2021-02-14T09:22:53Z</time>
      </trkpt>
      <trkpt lat="46.26673" lon="6.858">
        <ele>1670</ele>
        <time>2021-02-14T09:23:03Z</time>
      </trkpt>
      <trkpt lat="46.26669" lon="6.85803">
        <ele>1674</ele>
        <time>2021-02-14T09:24:23Z</time>
      </trkpt>
      <trkpt lat="46.26669" lon="6.85803">
        <ele>1676</ele>
        <time>2021-02-14T09:27:06Z</time>
      </trkpt>
      <trkpt lat="46.26667" lon="6.8581">
        <ele>1678</ele>
        <time>2021-02-14T09:28:15Z</time>
      </trkpt>
      <trkpt lat="46.26664" lon="6.85822">
        <ele>1678</ele>
        <time>2021-02-14T09:28:25Z</time>
      </trkpt>
      <trkpt lat="46.2666" lon="6.85836">
        <ele>1679</ele>
        <time>2021-02-14T09:28:35Z</time>
      </trkpt>
      <trkpt lat="46.26654" lon="6.85846">
        <ele>1679</ele>
        <time>2021-02-14T09:29:35Z</time>
      </trkpt>
      <trkpt lat="46.2665" lon="6.85857">
        <ele>1680</ele>
        <time>2021-02-14T09:29:45Z</time>
      </trkpt>
      <trkpt lat="46.26646" lon="6.85871">
        <ele>1682</ele>
        <time>2021-02-14T09:29:55Z</time>
      </trkpt>
      <trkpt lat="46.26643" lon="6.85879">
        <ele>1684</ele>
        <time>2021-02-14T09:30:05Z</time>
      </trkpt>
      <trkpt lat="46.26638" lon="6.85891">
        <ele>1685</ele>
        <time>2021-02-14T09:30:15Z</time>
      </trkpt>
      <trkpt lat="46.26637" lon="6.85901">
        <ele>1686</ele>
        <time>2021-02-14T09:30:25Z</time>
      </trkpt>
      <trkpt lat="46.26635" lon="6.85912">
        <ele>1689</ele>
        <time>2021-02-14T09:30:35Z</time>
      </trkpt>
      <trkpt lat="46.26634" lon="6.85922">
        <ele>1689</ele>
        <time>2021-02-14T09:30:45Z</time>
      </trkpt>
      <trkpt lat="46.2663" lon="6.85934">
        <ele>1689</ele>
        <time>2021-02-14T09:30:55Z</time>
      </trkpt>
      <trkpt lat="46.26626" lon="6.85942">
        <ele>1691</ele>
        <time>2021-02-14T09:31:25Z</time>
      </trkpt>
      <trkpt lat="46.26623" lon="6.85953">
        <ele>1692</ele>
        <time>2021-02-14T09:31:35Z</time>
      </trkpt>
      <trkpt lat="46.26621" lon="6.85963">
        <ele>1694</ele>
        <time>2021-02-14T09:31:45Z</time>
      </trkpt>
      <trkpt lat="46.26619" lon="6.85974">
        <ele>1695</ele>
        <time>2021-02-14T09:31:55Z</time>
      </trkpt>
      <trkpt lat="46.26618" lon="6.85985">
        <ele>1696</ele>
        <time>2021-02-14T09:32:05Z</time>
      </trkpt>
      <trkpt lat="46.26617" lon="6.8599">
        <ele>1696</ele>
        <time>2021-02-14T09:32:15Z</time>
      </trkpt>
      <trkpt lat="46.26615" lon="6.85997">
        <ele>1697</ele>
        <time>2021-02-14T09:32:23Z</time>
      </trkpt>
      <trkpt lat="46.26613" lon="6.86007">
        <ele>1699</ele>
        <time>2021-02-14T09:32:36Z</time>
      </trkpt>
      <trkpt lat="46.26612" lon="6.86017">
        <ele>1702</ele>
        <time>2021-02-14T09:32:46Z</time>
      </trkpt>
      <trkpt lat="46.26611" lon="6.86022">
        <ele>1702</ele>
        <time>2021-02-14T09:32:51Z</time>
      </trkpt>
      <trkpt lat="46.2661" lon="6.86033">
        <ele>1704</ele>
        <time>2021-02-14T09:33:01Z</time>
      </trkpt>
      <trkpt lat="46.26611" lon="6.86044">
        <ele>1704</ele>
        <time>2021-02-14T09:33:11Z</time>
      </trkpt>
      <trkpt lat="46.26611" lon="6.86057">
        <ele>1706</ele>
        <time>2021-02-14T09:33:21Z</time>
      </trkpt>
      <trkpt lat="46.26611" lon="6.86068">
        <ele>1708</ele>
        <time>2021-02-14T09:33:31Z</time>
      </trkpt>
      <trkpt lat="46.26609" lon="6.8608">
        <ele>1709</ele>
        <time>2021-02-14T09:33:41Z</time>
      </trkpt>
      <trkpt lat="46.26611" lon="6.86088">
        <ele>1711</ele>
        <time>2021-02-14T09:33:51Z</time>
      </trkpt>
      <trkpt lat="46.26611" lon="6.86097">
        <ele>1711</ele>
        <time>2021-02-14T09:34:01Z</time>
      </trkpt>
      <trkpt lat="46.26612" lon="6.86104">
        <ele>1712</ele>
        <time>2021-02-14T09:34:11Z</time>
      </trkpt>
      <trkpt lat="46.26612" lon="6.86115">
        <ele>1715</ele>
        <time>2021-02-14T09:34:26Z</time>
      </trkpt>
      <trkpt lat="46.26613" lon="6.86121">
        <ele>1716</ele>
        <time>2021-02-14T09:34:31Z</time>
      </trkpt>
      <trkpt lat="46.26611" lon="6.86129">
        <ele>1718</ele>
        <time>2021-02-14T09:34:41Z</time>
      </trkpt>
      <trkpt lat="46.26612" lon="6.86137">
        <ele>1721</ele>
        <time>2021-02-14T09:34:56Z</time>
      </trkpt>
      <trkpt lat="46.26611" lon="6.8615">
        <ele>1724</ele>
        <time>2021-02-14T09:35:11Z</time>
      </trkpt>
      <trkpt lat="46.26611" lon="6.86158">
        <ele>1725</ele>
        <time>2021-02-14T09:35:21Z</time>
      </trkpt>
      <trkpt lat="46.2661" lon="6.86166">
        <ele>1726</ele>
        <time>2021-02-14T09:35:31Z</time>
      </trkpt>
      <trkpt lat="46.26608" lon="6.86174">
        <ele>1729</ele>
        <time>2021-02-14T09:35:41Z</time>
      </trkpt>
      <trkpt lat="46.26606" lon="6.86183">
        <ele>1730</ele>
        <time>2021-02-14T09:35:51Z</time>
      </trkpt>
      <trkpt lat="46.26603" lon="6.86193">
        <ele>1732</ele>
        <time>2021-02-14T09:36:01Z</time>
      </trkpt>
      <trkpt lat="46.26602" lon="6.86205">
        <ele>1732</ele>
        <time>2021-02-14T09:36:11Z</time>
      </trkpt>
      <trkpt lat="46.26599" lon="6.86215">
        <ele>1732</ele>
        <time>2021-02-14T09:36:21Z</time>
      </trkpt>
      <trkpt lat="46.26599" lon="6.86228">
        <ele>1732</ele>
        <time>2021-02-14T09:36:31Z</time>
      </trkpt>
      <trkpt lat="46.266" lon="6.86237">
        <ele>1733</ele>
        <time>2021-02-14T09:36:41Z</time>
      </trkpt>
      <trkpt lat="46.26599" lon="6.86246">
        <ele>1732</ele>
        <time>2021-02-14T09:37:11Z</time>
      </trkpt>
      <trkpt lat="46.26598" lon="6.86261">
        <ele>1732</ele>
        <time>2021-02-14T09:37:21Z</time>
      </trkpt>
      <trkpt lat="46.26596" lon="6.86269">
        <ele>1733</ele>
        <time>2021-02-14T09:37:36Z</time>
      </trkpt>
      <trkpt lat="46.26591" lon="6.86282">
        <ele>1732</ele>
        <time>2021-02-14T09:37:46Z</time>
      </trkpt>
      <trkpt lat="46.26588" lon="6.86287">
        <ele>1731</ele>
        <time>2021-02-14T09:37:51Z</time>
      </trkpt>
      <trkpt lat="46.26585" lon="6.86299">
        <ele>1731</ele>
        <time>2021-02-14T09:38:01Z</time>
      </trkpt>
      <trkpt lat="46.26579" lon="6.86309">
        <ele>1732</ele>
        <time>2021-02-14T09:38:11Z</time>
      </trkpt>
      <trkpt lat="46.26572" lon="6.86319">
        <ele>1732</ele>
        <time>2021-02-14T09:38:21Z</time>
      </trkpt>
      <trkpt lat="46.26568" lon="6.8633">
        <ele>1732</ele>
        <time>2021-02-14T09:38:31Z</time>
      </trkpt>
      <trkpt lat="46.26564" lon="6.86341">
        <ele>1733</ele>
        <time>2021-02-14T09:38:41Z</time>
      </trkpt>
      <trkpt lat="46.2656" lon="6.86351">
        <ele>1733</ele>
        <time>2021-02-14T09:38:51Z</time>
      </trkpt>
      <trkpt lat="46.26556" lon="6.86364">
        <ele>1732</ele>
        <time>2021-02-14T09:39:01Z</time>
      </trkpt>
      <trkpt lat="46.26553" lon="6.86376">
        <ele>1732</ele>
        <time>2021-02-14T09:39:11Z</time>
      </trkpt>
      <trkpt lat="46.26552" lon="6.86385">
        <ele>1732</ele>
        <time>2021-02-14T09:39:21Z</time>
      </trkpt>
      <trkpt lat="46.2655" lon="6.86397">
        <ele>1733</ele>
        <time>2021-02-14T09:39:31Z</time>
      </trkpt>
      <trkpt lat="46.26549" lon="6.86409">
        <ele>1735</ele>
        <time>2021-02-14T09:39:41Z</time>
      </trkpt>
      <trkpt lat="46.26548" lon="6.86423">
        <ele>1736</ele>
        <time>2021-02-14T09:39:51Z</time>
      </trkpt>
      <trkpt lat="46.26548" lon="6.86434">
        <ele>1736</ele>
        <time>2021-02-14T09:40:00Z</time>
      </trkpt>
      <trkpt lat="46.26548" lon="6.86441">
        <ele>1736</ele>
        <time>2021-02-14T09:40:16Z</time>
      </trkpt>
      <trkpt lat="46.26549" lon="6.86452">
        <ele>1736</ele>
        <time>2021-02-14T09:40:25Z</time>
      </trkpt>
      <trkpt lat="46.26548" lon="6.86458">
        <ele>1735</ele>
        <time>2021-02-14T09:40:31Z</time>
      </trkpt>
      <trkpt lat="46.26547" lon="6.8647">
        <ele>1735</ele>
        <time>2021-02-14T09:40:40Z</time>
      </trkpt>
      <trkpt lat="46.26547" lon="6.86484">
        <ele>1734</ele>
        <time>2021-02-14T09:40:50Z</time>
      </trkpt>
      <trkpt lat="46.26547" lon="6.86492">
        <ele>1734</ele>
        <time>2021-02-14T09:40:55Z</time>
      </trkpt>
      <trkpt lat="46.26547" lon="6.86501">
        <ele>1733</ele>
        <time>2021-02-14T09:41:00Z</time>
      </trkpt>
      <trkpt lat="46.26547" lon="6.86515">
        <ele>1732</ele>
        <time>2021-02-14T09:41:10Z</time>
      </trkpt>
      <trkpt lat="46.26548" lon="6.86522">
        <ele>1731</ele>
        <time>2021-02-14T09:41:15Z</time>
      </trkpt>
      <trkpt lat="46.26551" lon="6.86536">
        <ele>1732</ele>
        <time>2021-02-14T09:41:25Z</time>
      </trkpt>
      <trkpt lat="46.26553" lon="6.86551">
        <ele>1732</ele>
        <time>2021-02-14T09:41:35Z</time>
      </trkpt>
      <trkpt lat="46.26558" lon="6.86565">
        <ele>1732</ele>
        <time>2021-02-14T09:41:45Z</time>
      </trkpt>
      <trkpt lat="46.26559" lon="6.86572">
        <ele>1732</ele>
        <time>2021-02-14T09:41:50Z</time>
      </trkpt>
      <trkpt lat="46.2656" lon="6.86577">
        <ele>1733</ele>
        <time>2021-02-14T09:41:55Z</time>
      </trkpt>
      <trkpt lat="46.26561" lon="6.86586">
        <ele>1733</ele>
        <time>2021-02-14T09:42:00Z</time>
      </trkpt>
      <trkpt lat="46.26565" lon="6.86598">
        <ele>1733</ele>
        <time>2021-02-14T09:42:10Z</time>
      </trkpt>
      <trkpt lat="46.26566" lon="6.86603">
        <ele>1733</ele>
        <time>2021-02-14T09:42:15Z</time>
      </trkpt>
      <trkpt lat="46.26566" lon="6.86618">
        <ele>1732</ele>
        <time>2021-02-14T09:42:25Z</time>
      </trkpt>
      <trkpt lat="46.26566" lon="6.86626">
        <ele>1732</ele>
        <time>2021-02-14T09:42:30Z</time>
      </trkpt>
      <trkpt lat="46.26564" lon="6.86634">
        <ele>1732</ele>
        <time>2021-02-14T09:42:35Z</time>
      </trkpt>
      <trkpt lat="46.26563" lon="6.86647">
        <ele>1732</ele>
        <time>2021-02-14T09:42:45Z</time>
      </trkpt>
      <trkpt lat="46.26558" lon="6.86661">
        <ele>1732</ele>
        <time>2021-02-14T09:42:55Z</time>
      </trkpt>
      <trkpt lat="46.26556" lon="6.8667">
        <ele>1731</ele>
        <time>2021-02-14T09:43:00Z</time>
      </trkpt>
      <trkpt lat="46.2655" lon="6.86685">
        <ele>1732</ele>
        <time>2021-02-14T09:43:10Z</time>
      </trkpt>
      <trkpt lat="46.26546" lon="6.86692">
        <ele>1732</ele>
        <time>2021-02-14T09:43:15Z</time>
      </trkpt>
      <trkpt lat="46.2654" lon="6.86706">
        <ele>1732</ele>
        <time>2021-02-14T09:43:25Z</time>
      </trkpt>
      <trkpt lat="46.26537" lon="6.86721">
        <ele>1733</ele>
        <time>2021-02-14T09:43:35Z</time>
      </trkpt>
      <trkpt lat="46.26534" lon="6.86734">
        <ele>1733</ele>
        <time>2021-02-14T09:43:45Z</time>
      </trkpt>
      <trkpt lat="46.26529" lon="6.86748">
        <ele>1734</ele>
        <time>2021-02-14T09:43:55Z</time>
      </trkpt>
      <trkpt lat="46.26527" lon="6.86755">
        <ele>1733</ele>
        <time>2021-02-14T09:44:00Z</time>
      </trkpt>
      <trkpt lat="46.26521" lon="6.86768">
        <ele>1733</ele>
        <time>2021-02-14T09:44:10Z</time>
      </trkpt>
      <trkpt lat="46.26518" lon="6.86773">
        <ele>1731</ele>
        <time>2021-02-14T09:44:15Z</time>
      </trkpt>
      <trkpt lat="46.26509" lon="6.86781">
        <ele>1729</ele>
        <time>2021-02-14T09:44:25Z</time>
      </trkpt>
      <trkpt lat="46.26499" lon="6.86787">
        <ele>1728</ele>
        <time>2021-02-14T09:44:35Z</time>
      </trkpt>
      <trkpt lat="46.26489" lon="6.86793">
        <ele>1730</ele>
        <time>2021-02-14T09:44:45Z</time>
      </trkpt>
      <trkpt lat="46.2648" lon="6.868">
        <ele>1729</ele>
        <time>2021-02-14T09:44:55Z</time>
      </trkpt>
      <trkpt lat="46.26471" lon="6.86805">
        <ele>1728</ele>
        <time>2021-02-14T09:45:05Z</time>
      </trkpt>
      <trkpt lat="46.26463" lon="6.86812">
        <ele>1726</ele>
        <time>2021-02-14T09:45:15Z</time>
      </trkpt>
      <trkpt lat="46.26453" lon="6.86817">
        <ele>1726</ele>
        <time>2021-02-14T09:45:25Z</time>
      </trkpt>
      <trkpt lat="46.26447" lon="6.86825">
        <ele>1724</ele>
        <time>2021-02-14T09:45:34Z</time>
      </trkpt>
      <trkpt lat="46.26443" lon="6.86828">
        <ele>1723</ele>
        <time>2021-02-14T09:45:40Z</time>
      </trkpt>
      <trkpt lat="46.26435" lon="6.86835">
        <ele>1723</ele>
        <time>2021-02-14T09:45:50Z</time>
      </trkpt>
      <trkpt lat="46.26431" lon="6.86837">
        <ele>1723</ele>
        <time>2021-02-14T09:45:55Z</time>
      </trkpt>
      <trkpt lat="46.26423" lon="6.86843">
        <ele>1722</ele>
        <time>2021-02-14T09:46:05Z</time>
      </trkpt>
      <trkpt lat="46.2642" lon="6.86846">
        <ele>1722</ele>
        <time>2021-02-14T09:46:16Z</time>
      </trkpt>
      <trkpt lat="46.26413" lon="6.86849">
        <ele>1723</ele>
        <time>2021-02-14T09:46:46Z</time>
      </trkpt>
      <trkpt lat="46.26408" lon="6.86854">
        <ele>1725</ele>
        <time>2021-02-14T09:46:53Z</time>
      </trkpt>
      <trkpt lat="46.26402" lon="6.86858">
        <ele>1725</ele>
        <time>2021-02-14T09:47:00Z</time>
      </trkpt>
      <trkpt lat="46.26396" lon="6.86863">
        <ele>1725</ele>
        <time>2021-02-14T09:47:08Z</time>
      </trkpt>
      <trkpt lat="46.26391" lon="6.86867">
        <ele>1726</ele>
        <time>2021-02-14T09:47:14Z</time>
      </trkpt>
      <trkpt lat="46.26385" lon="6.8687">
        <ele>1725</ele>
        <time>2021-02-14T09:47:21Z</time>
      </trkpt>
      <trkpt lat="46.26379" lon="6.86874">
        <ele>1725</ele>
        <time>2021-02-14T09:47:27Z</time>
      </trkpt>
      <trkpt lat="46.26373" lon="6.8688">
        <ele>1726</ele>
        <time>2021-02-14T09:47:34Z</time>
      </trkpt>
      <trkpt lat="46.26368" lon="6.86885">
        <ele>1726</ele>
        <time>2021-02-14T09:47:41Z</time>
      </trkpt>
      <trkpt lat="46.26361" lon="6.86895">
        <ele>1727</ele>
        <time>2021-02-14T09:47:53Z</time>
      </trkpt>
      <trkpt lat="46.26356" lon="6.86905">
        <ele>1726</ele>
        <time>2021-02-14T09:48:03Z</time>
      </trkpt>
      <trkpt lat="46.2635" lon="6.86917">
        <ele>1726</ele>
        <time>2021-02-14T09:48:14Z</time>
      </trkpt>
      <trkpt lat="46.26348" lon="6.86925">
        <ele>1726</ele>
        <time>2021-02-14T09:48:20Z</time>
      </trkpt>
      <trkpt lat="46.2634" lon="6.86932">
        <ele>1726</ele>
        <time>2021-02-14T09:48:31Z</time>
      </trkpt>
      <trkpt lat="46.26337" lon="6.86935">
        <ele>1727</ele>
        <time>2021-02-14T09:48:46Z</time>
      </trkpt>
      <trkpt lat="46.26328" lon="6.86941">
        <ele>1728</ele>
        <time>2021-02-14T09:48:56Z</time>
      </trkpt>
      <trkpt lat="46.2632" lon="6.86944">
        <ele>1729</ele>
        <time>2021-02-14T09:49:06Z</time>
      </trkpt>
      <trkpt lat="46.26312" lon="6.86946">
        <ele>1730</ele>
        <time>2021-02-14T09:49:16Z</time>
      </trkpt>
      <trkpt lat="46.26306" lon="6.86948">
        <ele>1730</ele>
        <time>2021-02-14T09:49:26Z</time>
      </trkpt>
      <trkpt lat="46.26299" lon="6.86954">
        <ele>1731</ele>
        <time>2021-02-14T09:49:36Z</time>
      </trkpt>
      <trkpt lat="46.26293" lon="6.86959">
        <ele>1730</ele>
        <time>2021-02-14T09:49:46Z</time>
      </trkpt>
      <trkpt lat="46.26288" lon="6.86965">
        <ele>1732</ele>
        <time>2021-02-14T09:49:56Z</time>
      </trkpt>
      <trkpt lat="46.2628" lon="6.86971">
        <ele>1733</ele>
        <time>2021-02-14T09:50:06Z</time>
      </trkpt>
      <trkpt lat="46.26273" lon="6.86976">
        <ele>1734</ele>
        <time>2021-02-14T09:50:16Z</time>
      </trkpt>
      <trkpt lat="46.26267" lon="6.86982">
        <ele>1735</ele>
        <time>2021-02-14T09:50:26Z</time>
      </trkpt>
      <trkpt lat="46.26262" lon="6.86991">
        <ele>1736</ele>
        <time>2021-02-14T09:50:36Z</time>
      </trkpt>
      <trkpt lat="46.26259" lon="6.86996">
        <ele>1737</ele>
        <time>2021-02-14T09:50:46Z</time>
      </trkpt>
      <trkpt lat="46.26257" lon="6.86998">
        <ele>1739</ele>
        <time>2021-02-14T09:50:56Z</time>
      </trkpt>
      <trkpt lat="46.26257" lon="6.87008">
        <ele>1740</ele>
        <time>2021-02-14T09:51:05Z</time>
      </trkpt>
      <trkpt lat="46.26256" lon="6.87014">
        <ele>1740</ele>
        <time>2021-02-14T09:51:12Z</time>
      </trkpt>
      <trkpt lat="46.26252" lon="6.87023">
        <ele>1742</ele>
        <time>2021-02-14T09:51:21Z</time>
      </trkpt>
      <trkpt lat="46.2625" lon="6.87035">
        <ele>1743</ele>
        <time>2021-02-14T09:51:31Z</time>
      </trkpt>
      <trkpt lat="46.26249" lon="6.87041">
        <ele>1743</ele>
        <time>2021-02-14T09:51:36Z</time>
      </trkpt>
      <trkpt lat="46.26247" lon="6.87051">
        <ele>1742</ele>
        <time>2021-02-14T09:51:46Z</time>
      </trkpt>
      <trkpt lat="46.26244" lon="6.87058">
        <ele>1745</ele>
        <time>2021-02-14T09:51:56Z</time>
      </trkpt>
      <trkpt lat="46.26236" lon="6.87059">
        <ele>1747</ele>
        <time>2021-02-14T09:52:26Z</time>
      </trkpt>
      <trkpt lat="46.26228" lon="6.8706">
        <ele>1748</ele>
        <time>2021-02-14T09:52:46Z</time>
      </trkpt>
      <trkpt lat="46.2622" lon="6.8706">
        <ele>1748</ele>
        <time>2021-02-14T09:52:56Z</time>
      </trkpt>
      <trkpt lat="46.26212" lon="6.87059">
        <ele>1749</ele>
        <time>2021-02-14T09:53:06Z</time>
      </trkpt>
      <trkpt lat="46.26208" lon="6.87056">
        <ele>1751</ele>
        <time>2021-02-14T09:53:16Z</time>
      </trkpt>
      <trkpt lat="46.26202" lon="6.87051">
        <ele>1753</ele>
        <time>2021-02-14T09:53:36Z</time>
      </trkpt>
      <trkpt lat="46.26209" lon="6.87052">
        <ele>1753</ele>
        <time>2021-02-14T09:54:01Z</time>
      </trkpt>
      <trkpt lat="46.262" lon="6.87053">
        <ele>1757</ele>
        <time>2021-02-14T09:54:16Z</time>
      </trkpt>
      <trkpt lat="46.26193" lon="6.87055">
        <ele>1757</ele>
        <time>2021-02-14T09:54:26Z</time>
      </trkpt>
      <trkpt lat="46.26186" lon="6.87052">
        <ele>1758</ele>
        <time>2021-02-14T09:54:36Z</time>
      </trkpt>
      <trkpt lat="46.26177" lon="6.8705">
        <ele>1760</ele>
        <time>2021-02-14T09:54:51Z</time>
      </trkpt>
      <trkpt lat="46.26173" lon="6.87048">
        <ele>1761</ele>
        <time>2021-02-14T09:54:56Z</time>
      </trkpt>
      <trkpt lat="46.26166" lon="6.87051">
        <ele>1762</ele>
        <time>2021-02-14T09:55:06Z</time>
      </trkpt>
      <trkpt lat="46.26157" lon="6.87053">
        <ele>1765</ele>
        <time>2021-02-14T09:55:16Z</time>
      </trkpt>
      <trkpt lat="46.26148" lon="6.8705">
        <ele>1765</ele>
        <time>2021-02-14T09:55:26Z</time>
      </trkpt>
      <trkpt lat="46.26139" lon="6.87047">
        <ele>1767</ele>
        <time>2021-02-14T09:55:36Z</time>
      </trkpt>
      <trkpt lat="46.26133" lon="6.87046">
        <ele>1769</ele>
        <time>2021-02-14T09:55:46Z</time>
      </trkpt>
      <trkpt lat="46.26127" lon="6.8705">
        <ele>1769</ele>
        <time>2021-02-14T09:56:06Z</time>
      </trkpt>
      <trkpt lat="46.26121" lon="6.8706">
        <ele>1771</ele>
        <time>2021-02-14T09:56:15Z</time>
      </trkpt>
      <trkpt lat="46.26117" lon="6.87065">
        <ele>1770</ele>
        <time>2021-02-14T09:56:21Z</time>
      </trkpt>
      <trkpt lat="46.26112" lon="6.87075">
        <ele>1771</ele>
        <time>2021-02-14T09:56:31Z</time>
      </trkpt>
      <trkpt lat="46.26109" lon="6.8708">
        <ele>1771</ele>
        <time>2021-02-14T09:56:36Z</time>
      </trkpt>
      <trkpt lat="46.26104" lon="6.87088">
        <ele>1772</ele>
        <time>2021-02-14T09:56:46Z</time>
      </trkpt>
      <trkpt lat="46.26098" lon="6.87096">
        <ele>1775</ele>
        <time>2021-02-14T09:56:56Z</time>
      </trkpt>
      <trkpt lat="46.26095" lon="6.87105">
        <ele>1777</ele>
        <time>2021-02-14T09:57:06Z</time>
      </trkpt>
      <trkpt lat="46.26095" lon="6.87116">
        <ele>1777</ele>
        <time>2021-02-14T09:57:16Z</time>
      </trkpt>
      <trkpt lat="46.26096" lon="6.87129">
        <ele>1777</ele>
        <time>2021-02-14T09:57:31Z</time>
      </trkpt>
      <trkpt lat="46.26097" lon="6.87134">
        <ele>1776</ele>
        <time>2021-02-14T09:57:36Z</time>
      </trkpt>
      <trkpt lat="46.26096" lon="6.87145">
        <ele>1777</ele>
        <time>2021-02-14T09:57:46Z</time>
      </trkpt>
      <trkpt lat="46.26095" lon="6.87153">
        <ele>1776</ele>
        <time>2021-02-14T09:57:56Z</time>
      </trkpt>
      <trkpt lat="46.26094" lon="6.87163">
        <ele>1778</ele>
        <time>2021-02-14T09:58:06Z</time>
      </trkpt>
      <trkpt lat="46.2609" lon="6.87168">
        <ele>1782</ele>
        <time>2021-02-14T09:58:16Z</time>
      </trkpt>
      <trkpt lat="46.26085" lon="6.87175">
        <ele>1785</ele>
        <time>2021-02-14T09:59:16Z</time>
      </trkpt>
      <trkpt lat="46.2608" lon="6.87179">
        <ele>1788</ele>
        <time>2021-02-14T09:59:36Z</time>
      </trkpt>
      <trkpt lat="46.26075" lon="6.87185">
        <ele>1789</ele>
        <time>2021-02-14T09:59:46Z</time>
      </trkpt>
      <trkpt lat="46.26069" lon="6.87184">
        <ele>1792</ele>
        <time>2021-02-14T09:59:56Z</time>
      </trkpt>
      <trkpt lat="46.26063" lon="6.87184">
        <ele>1792</ele>
        <time>2021-02-14T10:00:56Z</time>
      </trkpt>
      <trkpt lat="46.26059" lon="6.87185">
        <ele>1793</ele>
        <time>2021-02-14T10:01:21Z</time>
      </trkpt>
      <trkpt lat="46.26048" lon="6.87184">
        <ele>1794</ele>
        <time>2021-02-14T10:01:56Z</time>
      </trkpt>
      <trkpt lat="46.26039" lon="6.87186">
        <ele>1795</ele>
        <time>2021-02-14T10:02:06Z</time>
      </trkpt>
      <trkpt lat="46.26029" lon="6.87191">
        <ele>1794</ele>
        <time>2021-02-14T10:02:16Z</time>
      </trkpt>
      <trkpt lat="46.2602" lon="6.87195">
        <ele>1794</ele>
        <time>2021-02-14T10:02:26Z</time>
      </trkpt>
      <trkpt lat="46.26013" lon="6.87198">
        <ele>1794</ele>
        <time>2021-02-14T10:02:36Z</time>
      </trkpt>
      <trkpt lat="46.26006" lon="6.87199">
        <ele>1796</ele>
        <time>2021-02-14T10:02:46Z</time>
      </trkpt>
      <trkpt lat="46.26001" lon="6.872">
        <ele>1797</ele>
        <time>2021-02-14T10:02:56Z</time>
      </trkpt>
      <trkpt lat="46.25992" lon="6.87201">
        <ele>1798</ele>
        <time>2021-02-14T10:03:06Z</time>
      </trkpt>
      <trkpt lat="46.25986" lon="6.87203">
        <ele>1799</ele>
        <time>2021-02-14T10:03:16Z</time>
      </trkpt>
      <trkpt lat="46.25979" lon="6.87207">
        <ele>1800</ele>
        <time>2021-02-14T10:03:26Z</time>
      </trkpt>
      <trkpt lat="46.25971" lon="6.87203">
        <ele>1800</ele>
        <time>2021-02-14T10:03:36Z</time>
      </trkpt>
      <trkpt lat="46.25964" lon="6.87204">
        <ele>1801</ele>
        <time>2021-02-14T10:03:45Z</time>
      </trkpt>
      <trkpt lat="46.25955" lon="6.87208">
        <ele>1803</ele>
        <time>2021-02-14T10:03:56Z</time>
      </trkpt>
      <trkpt lat="46.25952" lon="6.87215">
        <ele>1804</ele>
        <time>2021-02-14T10:04:06Z</time>
      </trkpt>
      <trkpt lat="46.25951" lon="6.87223">
        <ele>1806</ele>
        <time>2021-02-14T10:04:16Z</time>
      </trkpt>
      <trkpt lat="46.25951" lon="6.87233">
        <ele>1809</ele>
        <time>2021-02-14T10:04:26Z</time>
      </trkpt>
      <trkpt lat="46.25949" lon="6.87242">
        <ele>1810</ele>
        <time>2021-02-14T10:04:36Z</time>
      </trkpt>
      <trkpt lat="46.25942" lon="6.87249">
        <ele>1810</ele>
        <time>2021-02-14T10:04:46Z</time>
      </trkpt>
      <trkpt lat="46.25936" lon="6.87256">
        <ele>1811</ele>
        <time>2021-02-14T10:04:56Z</time>
      </trkpt>
      <trkpt lat="46.25929" lon="6.87258">
        <ele>1813</ele>
        <time>2021-02-14T10:05:11Z</time>
      </trkpt>
      <trkpt lat="46.25925" lon="6.87259">
        <ele>1816</ele>
        <time>2021-02-14T10:05:16Z</time>
      </trkpt>
      <trkpt lat="46.25918" lon="6.87259">
        <ele>1817</ele>
        <time>2021-02-14T10:05:26Z</time>
      </trkpt>
      <trkpt lat="46.2591" lon="6.8726">
        <ele>1817</ele>
        <time>2021-02-14T10:05:36Z</time>
      </trkpt>
      <trkpt lat="46.25901" lon="6.87266">
        <ele>1817</ele>
        <time>2021-02-14T10:05:51Z</time>
      </trkpt>
      <trkpt lat="46.25897" lon="6.87269">
        <ele>1818</ele>
        <time>2021-02-14T10:05:56Z</time>
      </trkpt>
      <trkpt lat="46.2589" lon="6.87273">
        <ele>1819</ele>
        <time>2021-02-14T10:06:06Z</time>
      </trkpt>
      <trkpt lat="46.25882" lon="6.87274">
        <ele>1820</ele>
        <time>2021-02-14T10:06:15Z</time>
      </trkpt>
      <trkpt lat="46.25877" lon="6.87275">
        <ele>1822</ele>
        <time>2021-02-14T10:06:21Z</time>
      </trkpt>
      <trkpt lat="46.25869" lon="6.87276">
        <ele>1825</ele>
        <time>2021-02-14T10:06:31Z</time>
      </trkpt>
      <trkpt lat="46.25865" lon="6.87278">
        <ele>1825</ele>
        <time>2021-02-14T10:06:36Z</time>
      </trkpt>
      <trkpt lat="46.25858" lon="6.8728">
        <ele>1829</ele>
        <time>2021-02-14T10:06:46Z</time>
      </trkpt>
      <trkpt lat="46.25851" lon="6.87282">
        <ele>1831</ele>
        <time>2021-02-14T10:06:56Z</time>
      </trkpt>
      <trkpt lat="46.25844" lon="6.87284">
        <ele>1833</ele>
        <time>2021-02-14T10:07:06Z</time>
      </trkpt>
      <trkpt lat="46.25838" lon="6.87286">
        <ele>1833</ele>
        <time>2021-02-14T10:07:16Z</time>
      </trkpt>
      <trkpt lat="46.25833" lon="6.87294">
        <ele>1835</ele>
        <time>2021-02-14T10:07:26Z</time>
      </trkpt>
      <trkpt lat="46.25829" lon="6.87302">
        <ele>1835</ele>
        <time>2021-02-14T10:07:36Z</time>
      </trkpt>
      <trkpt lat="46.25829" lon="6.87312">
        <ele>1837</ele>
        <time>2021-02-14T10:07:46Z</time>
      </trkpt>
      <trkpt lat="46.2583" lon="6.87322">
        <ele>1836</ele>
        <time>2021-02-14T10:07:56Z</time>
      </trkpt>
      <trkpt lat="46.25833" lon="6.87328">
        <ele>1837</ele>
        <time>2021-02-14T10:08:06Z</time>
      </trkpt>
      <trkpt lat="46.25839" lon="6.8733">
        <ele>1838</ele>
        <time>2021-02-14T10:08:16Z</time>
      </trkpt>
      <trkpt lat="46.25843" lon="6.87338">
        <ele>1838</ele>
        <time>2021-02-14T10:08:26Z</time>
      </trkpt>
      <trkpt lat="46.25848" lon="6.87347">
        <ele>1839</ele>
        <time>2021-02-14T10:08:36Z</time>
      </trkpt>
      <trkpt lat="46.2585" lon="6.8735">
        <ele>1840</ele>
        <time>2021-02-14T10:08:56Z</time>
      </trkpt>
      <trkpt lat="46.25847" lon="6.8735">
        <ele>1844</ele>
        <time>2021-02-14T10:11:16Z</time>
      </trkpt>
      <trkpt lat="46.25849" lon="6.87357">
        <ele>1844</ele>
        <time>2021-02-14T10:14:49Z</time>
      </trkpt>
      <trkpt lat="46.25853" lon="6.87365">
        <ele>1843</ele>
        <time>2021-02-14T10:14:59Z</time>
      </trkpt>
      <trkpt lat="46.25857" lon="6.87369">
        <ele>1843</ele>
        <time>2021-02-14T10:15:04Z</time>
      </trkpt>
      <trkpt lat="46.2586" lon="6.87378">
        <ele>1843</ele>
        <time>2021-02-14T10:15:13Z</time>
      </trkpt>
      <trkpt lat="46.25863" lon="6.87384">
        <ele>1844</ele>
        <time>2021-02-14T10:15:20Z</time>
      </trkpt>
      <trkpt lat="46.25866" lon="6.87391">
        <ele>1844</ele>
        <time>2021-02-14T10:15:28Z</time>
      </trkpt>
      <trkpt lat="46.25868" lon="6.87402">
        <ele>1847</ele>
        <time>2021-02-14T10:15:38Z</time>
      </trkpt>
      <trkpt lat="46.25873" lon="6.87409">
        <ele>1847</ele>
        <time>2021-02-14T10:15:48Z</time>
      </trkpt>
      <trkpt lat="46.25877" lon="6.87421">
        <ele>1848</ele>
        <time>2021-02-14T10:16:03Z</time>
      </trkpt>
      <trkpt lat="46.25879" lon="6.87425">
        <ele>1849</ele>
        <time>2021-02-14T10:16:08Z</time>
      </trkpt>
      <trkpt lat="46.25883" lon="6.87435">
        <ele>1849</ele>
        <time>2021-02-14T10:16:18Z</time>
      </trkpt>
      <trkpt lat="46.25885" lon="6.87441">
        <ele>1850</ele>
        <time>2021-02-14T10:16:33Z</time>
      </trkpt>
      <trkpt lat="46.25886" lon="6.87449">
        <ele>1852</ele>
        <time>2021-02-14T10:16:43Z</time>
      </trkpt>
      <trkpt lat="46.25888" lon="6.87457">
        <ele>1854</ele>
        <time>2021-02-14T10:16:53Z</time>
      </trkpt>
      <trkpt lat="46.25889" lon="6.87466">
        <ele>1857</ele>
        <time>2021-02-14T10:17:03Z</time>
      </trkpt>
      <trkpt lat="46.25891" lon="6.87469">
        <ele>1857</ele>
        <time>2021-02-14T10:17:08Z</time>
      </trkpt>
      <trkpt lat="46.25895" lon="6.87476">
        <ele>1860</ele>
        <time>2021-02-14T10:17:23Z</time>
      </trkpt>
      <trkpt lat="46.25895" lon="6.87481">
        <ele>1860</ele>
        <time>2021-02-14T10:17:28Z</time>
      </trkpt>
      <trkpt lat="46.25892" lon="6.87489">
        <ele>1863</ele>
        <time>2021-02-14T10:17:38Z</time>
      </trkpt>
      <trkpt lat="46.2589" lon="6.87496">
        <ele>1865</ele>
        <time>2021-02-14T10:17:48Z</time>
      </trkpt>
      <trkpt lat="46.2589" lon="6.87508">
        <ele>1868</ele>
        <time>2021-02-14T10:17:58Z</time>
      </trkpt>
      <trkpt lat="46.2589" lon="6.87515">
        <ele>1870</ele>
        <time>2021-02-14T10:18:08Z</time>
      </trkpt>
      <trkpt lat="46.25895" lon="6.87522">
        <ele>1874</ele>
        <time>2021-02-14T10:18:23Z</time>
      </trkpt>
      <trkpt lat="46.25894" lon="6.87527">
        <ele>1874</ele>
        <time>2021-02-14T10:18:28Z</time>
      </trkpt>
      <trkpt lat="46.25896" lon="6.87537">
        <ele>1876</ele>
        <time>2021-02-14T10:18:43Z</time>
      </trkpt>
      <trkpt lat="46.25896" lon="6.87544">
        <ele>1877</ele>
        <time>2021-02-14T10:18:53Z</time>
      </trkpt>
      <trkpt lat="46.25896" lon="6.87552">
        <ele>1880</ele>
        <time>2021-02-14T10:19:03Z</time>
      </trkpt>
      <trkpt lat="46.25898" lon="6.87555">
        <ele>1880</ele>
        <time>2021-02-14T10:19:08Z</time>
      </trkpt>
      <trkpt lat="46.259" lon="6.87564">
        <ele>1882</ele>
        <time>2021-02-14T10:19:18Z</time>
      </trkpt>
      <trkpt lat="46.25899" lon="6.87571">
        <ele>1883</ele>
        <time>2021-02-14T10:19:28Z</time>
      </trkpt>
      <trkpt lat="46.25897" lon="6.87581">
        <ele>1887</ele>
        <time>2021-02-14T10:19:38Z</time>
      </trkpt>
      <trkpt lat="46.25895" lon="6.87587">
        <ele>1887</ele>
        <time>2021-02-14T10:19:48Z</time>
      </trkpt>
      <trkpt lat="46.25893" lon="6.87598">
        <ele>1891</ele>
        <time>2021-02-14T10:20:03Z</time>
      </trkpt>
      <trkpt lat="46.2589" lon="6.87602">
        <ele>1892</ele>
        <time>2021-02-14T10:20:08Z</time>
      </trkpt>
      <trkpt lat="46.25888" lon="6.87609">
        <ele>1896</ele>
        <time>2021-02-14T10:20:18Z</time>
      </trkpt>
      <trkpt lat="46.2589" lon="6.87616">
        <ele>1895</ele>
        <time>2021-02-14T10:20:28Z</time>
      </trkpt>
      <trkpt lat="46.25892" lon="6.87624">
        <ele>1899</ele>
        <time>2021-02-14T10:20:38Z</time>
      </trkpt>
      <trkpt lat="46.25894" lon="6.87632">
        <ele>1901</ele>
        <time>2021-02-14T10:20:48Z</time>
      </trkpt>
      <trkpt lat="46.25896" lon="6.87639">
        <ele>1901</ele>
        <time>2021-02-14T10:21:03Z</time>
      </trkpt>
      <trkpt lat="46.25891" lon="6.87649">
        <ele>1904</ele>
        <time>2021-02-14T10:21:41Z</time>
      </trkpt>
      <trkpt lat="46.2589" lon="6.87657">
        <ele>1904</ele>
        <time>2021-02-14T10:21:52Z</time>
      </trkpt>
      <trkpt lat="46.25895" lon="6.87669">
        <ele>1905</ele>
        <time>2021-02-14T10:23:02Z</time>
      </trkpt>
      <trkpt lat="46.25893" lon="6.8768">
        <ele>1909</ele>
        <time>2021-02-14T10:23:18Z</time>
      </trkpt>
      <trkpt lat="46.25891" lon="6.87686">
        <ele>1913</ele>
        <time>2021-02-14T10:23:29Z</time>
      </trkpt>
      <trkpt lat="46.25897" lon="6.87694">
        <ele>1912</ele>
        <time>2021-02-14T10:23:52Z</time>
      </trkpt>
      <trkpt lat="46.25903" lon="6.87696">
        <ele>1915</ele>
        <time>2021-02-14T10:24:02Z</time>
      </trkpt>
      <trkpt lat="46.25905" lon="6.87697">
        <ele>1914</ele>
        <time>2021-02-14T10:24:17Z</time>
      </trkpt>
      <trkpt lat="46.25908" lon="6.87704">
        <ele>1917</ele>
        <time>2021-02-14T10:24:27Z</time>
      </trkpt>
      <trkpt lat="46.25909" lon="6.87714">
        <ele>1919</ele>
        <time>2021-02-14T10:24:42Z</time>
      </trkpt>
      <trkpt lat="46.25908" lon="6.8772">
        <ele>1924</ele>
        <time>2021-02-14T10:24:57Z</time>
      </trkpt>
      <trkpt lat="46.2591" lon="6.87727">
        <ele>1925</ele>
        <time>2021-02-14T10:25:07Z</time>
      </trkpt>
      <trkpt lat="46.25914" lon="6.87736">
        <ele>1925</ele>
        <time>2021-02-14T10:25:17Z</time>
      </trkpt>
      <trkpt lat="46.25918" lon="6.87744">
        <ele>1926</ele>
        <time>2021-02-14T10:25:27Z</time>
      </trkpt>
      <trkpt lat="46.25922" lon="6.87752">
        <ele>1928</ele>
        <time>2021-02-14T10:25:37Z</time>
      </trkpt>
      <trkpt lat="46.25922" lon="6.87758">
        <ele>1931</ele>
        <time>2021-02-14T10:25:47Z</time>
      </trkpt>
      <trkpt lat="46.25917" lon="6.87762">
        <ele>1933</ele>
        <time>2021-02-14T10:25:57Z</time>
      </trkpt>
      <trkpt lat="46.25914" lon="6.8777">
        <ele>1935</ele>
        <time>2021-02-14T10:26:07Z</time>
      </trkpt>
      <trkpt lat="46.25907" lon="6.87775">
        <ele>1936</ele>
        <time>2021-02-14T10:26:22Z</time>
      </trkpt>
      <trkpt lat="46.25905" lon="6.87776">
        <ele>1940</ele>
        <time>2021-02-14T10:27:57Z</time>
      </trkpt>
      <trkpt lat="46.25898" lon="6.87778">
        <ele>1944</ele>
        <time>2021-02-14T10:28:22Z</time>
      </trkpt>
      <trkpt lat="46.25895" lon="6.87779">
        <ele>1944</ele>
        <time>2021-02-14T10:28:27Z</time>
      </trkpt>
      <trkpt lat="46.25887" lon="6.87784">
        <ele>1945</ele>
        <time>2021-02-14T10:28:41Z</time>
      </trkpt>
      <trkpt lat="46.25884" lon="6.87787">
        <ele>1946</ele>
        <time>2021-02-14T10:28:47Z</time>
      </trkpt>
      <trkpt lat="46.25881" lon="6.87794">
        <ele>1946</ele>
        <time>2021-02-14T10:29:32Z</time>
      </trkpt>
      <trkpt lat="46.25877" lon="6.87799">
        <ele>1947</ele>
        <time>2021-02-14T10:29:47Z</time>
      </trkpt>
      <trkpt lat="46.25871" lon="6.87806">
        <ele>1949</ele>
        <time>2021-02-14T10:29:57Z</time>
      </trkpt>
      <trkpt lat="46.25867" lon="6.87811">
        <ele>1950</ele>
        <time>2021-02-14T10:30:07Z</time>
      </trkpt>
      <trkpt lat="46.25863" lon="6.87818">
        <ele>1950</ele>
        <time>2021-02-14T10:30:17Z</time>
      </trkpt>
      <trkpt lat="46.2586" lon="6.87828">
        <ele>1952</ele>
        <time>2021-02-14T10:30:27Z</time>
      </trkpt>
      <trkpt lat="46.25857" lon="6.87832">
        <ele>1953</ele>
        <time>2021-02-14T10:30:42Z</time>
      </trkpt>
      <trkpt lat="46.25853" lon="6.8784">
        <ele>1956</ele>
        <time>2021-02-14T10:30:57Z</time>
      </trkpt>
      <trkpt lat="46.25852" lon="6.87846">
        <ele>1957</ele>
        <time>2021-02-14T10:31:07Z</time>
      </trkpt>
      <trkpt lat="46.25849" lon="6.87855">
        <ele>1960</ele>
        <time>2021-02-14T10:31:22Z</time>
      </trkpt>
      <trkpt lat="46.25848" lon="6.87861">
        <ele>1963</ele>
        <time>2021-02-14T10:31:42Z</time>
      </trkpt>
      <trkpt lat="46.25847" lon="6.87865">
        <ele>1964</ele>
        <time>2021-02-14T10:31:52Z</time>
      </trkpt>
      <trkpt lat="46.25842" lon="6.87873">
        <ele>1967</ele>
        <time>2021-02-14T10:32:42Z</time>
      </trkpt>
      <trkpt lat="46.25839" lon="6.87876">
        <ele>1968</ele>
        <time>2021-02-14T10:34:12Z</time>
      </trkpt>
      <trkpt lat="46.25834" lon="6.87884">
        <ele>1968</ele>
        <time>2021-02-14T10:34:32Z</time>
      </trkpt>
      <trkpt lat="46.25832" lon="6.8789">
        <ele>1969</ele>
        <time>2021-02-14T10:34:47Z</time>
      </trkpt>
      <trkpt lat="46.25828" lon="6.87901">
        <ele>1970</ele>
        <time>2021-02-14T10:35:02Z</time>
      </trkpt>
      <trkpt lat="46.25826" lon="6.87907">
        <ele>1971</ele>
        <time>2021-02-14T10:35:12Z</time>
      </trkpt>
      <trkpt lat="46.25822" lon="6.87908">
        <ele>1970</ele>
        <time>2021-02-14T10:35:47Z</time>
      </trkpt>
      <trkpt lat="46.25821" lon="6.87915">
        <ele>1969</ele>
        <time>2021-02-14T10:36:22Z</time>
      </trkpt>
      <trkpt lat="46.25822" lon="6.87908">
        <ele>1968</ele>
        <time>2021-02-14T10:36:47Z</time>
      </trkpt>
      <trkpt lat="46.2582" lon="6.87912">
        <ele>1966</ele>
        <time>2021-02-14T10:37:52Z</time>
      </trkpt>
      <trkpt lat="46.25817" lon="6.87922">
        <ele>1966</ele>
        <time>2021-02-14T10:38:02Z</time>
      </trkpt>
      <trkpt lat="46.25816" lon="6.87927">
        <ele>1965</ele>
        <time>2021-02-14T10:38:07Z</time>
      </trkpt>
      <trkpt lat="46.25811" lon="6.87938">
        <ele>1965</ele>
        <time>2021-02-14T10:38:22Z</time>
      </trkpt>
      <trkpt lat="46.25811" lon="6.87945">
        <ele>1966</ele>
        <time>2021-02-14T10:38:27Z</time>
      </trkpt>
      <trkpt lat="46.25805" lon="6.87954">
        <ele>1966</ele>
        <time>2021-02-14T10:38:41Z</time>
      </trkpt>
      <trkpt lat="46.25803" lon="6.8796">
        <ele>1967</ele>
        <time>2021-02-14T10:38:47Z</time>
      </trkpt>
      <trkpt lat="46.25801" lon="6.87969">
        <ele>1967</ele>
        <time>2021-02-14T10:38:57Z</time>
      </trkpt>
      <trkpt lat="46.25794" lon="6.87978">
        <ele>1969</ele>
        <time>2021-02-14T10:39:07Z</time>
      </trkpt>
      <trkpt lat="46.2579" lon="6.87984">
        <ele>1967</ele>
        <time>2021-02-14T10:39:17Z</time>
      </trkpt>
      <trkpt lat="46.25789" lon="6.87991">
        <ele>1969</ele>
        <time>2021-02-14T10:39:27Z</time>
      </trkpt>
      <trkpt lat="46.25786" lon="6.87998">
        <ele>1972</ele>
        <time>2021-02-14T10:39:37Z</time>
      </trkpt>
      <trkpt lat="46.25785" lon="6.88005">
        <ele>1972</ele>
        <time>2021-02-14T10:39:47Z</time>
      </trkpt>
      <trkpt lat="46.25781" lon="6.88012">
        <ele>1973</ele>
        <time>2021-02-14T10:39:57Z</time>
      </trkpt>
      <trkpt lat="46.25778" lon="6.88023">
        <ele>1977</ele>
        <time>2021-02-14T10:40:07Z</time>
      </trkpt>
      <trkpt lat="46.25775" lon="6.88032">
        <ele>1980</ele>
        <time>2021-02-14T10:40:17Z</time>
      </trkpt>
      <trkpt lat="46.2577" lon="6.88042">
        <ele>1982</ele>
        <time>2021-02-14T10:40:27Z</time>
      </trkpt>
      <trkpt lat="46.25766" lon="6.88051">
        <ele>1983</ele>
        <time>2021-02-14T10:40:37Z</time>
      </trkpt>
      <trkpt lat="46.25763" lon="6.88061">
        <ele>1984</ele>
        <time>2021-02-14T10:40:47Z</time>
      </trkpt>
      <trkpt lat="46.2576" lon="6.88072">
        <ele>1986</ele>
        <time>2021-02-14T10:40:57Z</time>
      </trkpt>
      <trkpt lat="46.25758" lon="6.88079">
        <ele>1988</ele>
        <time>2021-02-14T10:41:07Z</time>
      </trkpt>
      <trkpt lat="46.25756" lon="6.88089">
        <ele>1989</ele>
        <time>2021-02-14T10:41:17Z</time>
      </trkpt>
      <trkpt lat="46.25755" lon="6.88099">
        <ele>1990</ele>
        <time>2021-02-14T10:41:27Z</time>
      </trkpt>
      <trkpt lat="46.25753" lon="6.88114">
        <ele>1995</ele>
        <time>2021-02-14T10:41:42Z</time>
      </trkpt>
      <trkpt lat="46.25753" lon="6.88119">
        <ele>1995</ele>
        <time>2021-02-14T10:41:47Z</time>
      </trkpt>
      <trkpt lat="46.25753" lon="6.88128">
        <ele>1996</ele>
        <time>2021-02-14T10:41:57Z</time>
      </trkpt>
      <trkpt lat="46.25751" lon="6.88134">
        <ele>1997</ele>
        <time>2021-02-14T10:42:27Z</time>
      </trkpt>
      <trkpt lat="46.25751" lon="6.88142">
        <ele>1996</ele>
        <time>2021-02-14T10:42:37Z</time>
      </trkpt>
      <trkpt lat="46.25753" lon="6.88151">
        <ele>1998</ele>
        <time>2021-02-14T10:43:27Z</time>
      </trkpt>
      <trkpt lat="46.25752" lon="6.88162">
        <ele>1998</ele>
        <time>2021-02-14T10:43:37Z</time>
      </trkpt>
      <trkpt lat="46.2575" lon="6.88173">
        <ele>1999</ele>
        <time>2021-02-14T10:43:47Z</time>
      </trkpt>
      <trkpt lat="46.25749" lon="6.88184">
        <ele>2000</ele>
        <time>2021-02-14T10:43:57Z</time>
      </trkpt>
      <trkpt lat="46.25747" lon="6.88193">
        <ele>2002</ele>
        <time>2021-02-14T10:44:07Z</time>
      </trkpt>
      <trkpt lat="46.25748" lon="6.88201">
        <ele>2002</ele>
        <time>2021-02-14T10:44:17Z</time>
      </trkpt>
      <trkpt lat="46.25752" lon="6.8821">
        <ele>2003</ele>
        <time>2021-02-14T10:44:27Z</time>
      </trkpt>
      <trkpt lat="46.25751" lon="6.8822">
        <ele>2006</ele>
        <time>2021-02-14T10:44:47Z</time>
      </trkpt>
      <trkpt lat="46.25753" lon="6.88229">
        <ele>2009</ele>
        <time>2021-02-14T10:44:57Z</time>
      </trkpt>
      <trkpt lat="46.25752" lon="6.88237">
        <ele>2008</ele>
        <time>2021-02-14T10:45:07Z</time>
      </trkpt>
      <trkpt lat="46.25752" lon="6.88249">
        <ele>2008</ele>
        <time>2021-02-14T10:45:22Z</time>
      </trkpt>
      <trkpt lat="46.25754" lon="6.88252">
        <ele>2009</ele>
        <time>2021-02-14T10:45:27Z</time>
      </trkpt>
      <trkpt lat="46.25759" lon="6.88258">
        <ele>2008</ele>
        <time>2021-02-14T10:45:32Z</time>
      </trkpt>
      <trkpt lat="46.25756" lon="6.8827">
        <ele>2010</ele>
        <time>2021-02-14T10:45:42Z</time>
      </trkpt>
      <trkpt lat="46.25753" lon="6.88273">
        <ele>2010</ele>
        <time>2021-02-14T10:45:47Z</time>
      </trkpt>
      <trkpt lat="46.25752" lon="6.88282">
        <ele>2012</ele>
        <time>2021-02-14T10:45:57Z</time>
      </trkpt>
      <trkpt lat="46.25752" lon="6.88289">
        <ele>2016</ele>
        <time>2021-02-14T10:46:07Z</time>
      </trkpt>
      <trkpt lat="46.25751" lon="6.88301">
        <ele>2018</ele>
        <time>2021-02-14T10:46:22Z</time>
      </trkpt>
      <trkpt lat="46.25748" lon="6.88306">
        <ele>2020</ele>
        <time>2021-02-14T10:46:27Z</time>
      </trkpt>
      <trkpt lat="46.25748" lon="6.88315">
        <ele>2021</ele>
        <time>2021-02-14T10:46:37Z</time>
      </trkpt>
      <trkpt lat="46.25747" lon="6.88327">
        <ele>2026</ele>
        <time>2021-02-14T10:46:47Z</time>
      </trkpt>
      <trkpt lat="46.25746" lon="6.88336">
        <ele>2028</ele>
        <time>2021-02-14T10:46:57Z</time>
      </trkpt>
      <trkpt lat="46.25745" lon="6.88347">
        <ele>2031</ele>
        <time>2021-02-14T10:47:07Z</time>
      </trkpt>
      <trkpt lat="46.25745" lon="6.88358">
        <ele>2034</ele>
        <time>2021-02-14T10:47:27Z</time>
      </trkpt>
      <trkpt lat="46.25745" lon="6.88371">
        <ele>2036</ele>
        <time>2021-02-14T10:47:37Z</time>
      </trkpt>
      <trkpt lat="46.25746" lon="6.88384">
        <ele>2037</ele>
        <time>2021-02-14T10:47:47Z</time>
      </trkpt>
      <trkpt lat="46.25746" lon="6.88393">
        <ele>2038</ele>
        <time>2021-02-14T10:47:57Z</time>
      </trkpt>
      <trkpt lat="46.25747" lon="6.88403">
        <ele>2040</ele>
        <time>2021-02-14T10:48:07Z</time>
      </trkpt>
      <trkpt lat="46.25747" lon="6.88414">
        <ele>2040</ele>
        <time>2021-02-14T10:48:17Z</time>
      </trkpt>
      <trkpt lat="46.25748" lon="6.88427">
        <ele>2043</ele>
        <time>2021-02-14T10:48:27Z</time>
      </trkpt>
      <trkpt lat="46.25747" lon="6.88437">
        <ele>2046</ele>
        <time>2021-02-14T10:48:37Z</time>
      </trkpt>
      <trkpt lat="46.25747" lon="6.88449">
        <ele>2049</ele>
        <time>2021-02-14T10:48:47Z</time>
      </trkpt>
      <trkpt lat="46.25746" lon="6.8846">
        <ele>2052</ele>
        <time>2021-02-14T10:48:57Z</time>
      </trkpt>
      <trkpt lat="46.25744" lon="6.88471">
        <ele>2055</ele>
        <time>2021-02-14T10:49:07Z</time>
      </trkpt>
      <trkpt lat="46.25743" lon="6.88482">
        <ele>2056</ele>
        <time>2021-02-14T10:49:17Z</time>
      </trkpt>
      <trkpt lat="46.25742" lon="6.88492">
        <ele>2058</ele>
        <time>2021-02-14T10:49:27Z</time>
      </trkpt>
      <trkpt lat="46.25742" lon="6.88501">
        <ele>2060</ele>
        <time>2021-02-14T10:49:37Z</time>
      </trkpt>
      <trkpt lat="46.25741" lon="6.88511">
        <ele>2062</ele>
        <time>2021-02-14T10:49:47Z</time>
      </trkpt>
      <trkpt lat="46.25741" lon="6.88522">
        <ele>2065</ele>
        <time>2021-02-14T10:49:57Z</time>
      </trkpt>
      <trkpt lat="46.2574" lon="6.88531">
        <ele>2069</ele>
        <time>2021-02-14T10:50:07Z</time>
      </trkpt>
      <trkpt lat="46.2574" lon="6.88542">
        <ele>2069</ele>
        <time>2021-02-14T10:50:17Z</time>
      </trkpt>
      <trkpt lat="46.25739" lon="6.88552">
        <ele>2069</ele>
        <time>2021-02-14T10:50:27Z</time>
      </trkpt>
      <trkpt lat="46.25736" lon="6.88562">
        <ele>2072</ele>
        <time>2021-02-14T10:50:47Z</time>
      </trkpt>
      <trkpt lat="46.25737" lon="6.88571">
        <ele>2073</ele>
        <time>2021-02-14T10:50:57Z</time>
      </trkpt>
      <trkpt lat="46.25737" lon="6.88582">
        <ele>2076</ele>
        <time>2021-02-14T10:51:07Z</time>
      </trkpt>
      <trkpt lat="46.25739" lon="6.88591">
        <ele>2077</ele>
        <time>2021-02-14T10:51:17Z</time>
      </trkpt>
      <trkpt lat="46.25738" lon="6.886">
        <ele>2077</ele>
        <time>2021-02-14T10:51:27Z</time>
      </trkpt>
      <trkpt lat="46.25741" lon="6.88609">
        <ele>2077</ele>
        <time>2021-02-14T10:51:37Z</time>
      </trkpt>
      <trkpt lat="46.25744" lon="6.88618">
        <ele>2077</ele>
        <time>2021-02-14T10:51:47Z</time>
      </trkpt>
      <trkpt lat="46.25746" lon="6.88626">
        <ele>2078</ele>
        <time>2021-02-14T10:51:57Z</time>
      </trkpt>
      <trkpt lat="46.25747" lon="6.88638">
        <ele>2080</ele>
        <time>2021-02-14T10:52:07Z</time>
      </trkpt>
      <trkpt lat="46.25749" lon="6.88648">
        <ele>2080</ele>
        <time>2021-02-14T10:52:17Z</time>
      </trkpt>
      <trkpt lat="46.25753" lon="6.88656">
        <ele>2079</ele>
        <time>2021-02-14T10:52:27Z</time>
      </trkpt>
      <trkpt lat="46.25753" lon="6.88667">
        <ele>2080</ele>
        <time>2021-02-14T10:52:37Z</time>
      </trkpt>
      <trkpt lat="46.25754" lon="6.88677">
        <ele>2081</ele>
        <time>2021-02-14T10:52:47Z</time>
      </trkpt>
      <trkpt lat="46.25754" lon="6.88689">
        <ele>2080</ele>
        <time>2021-02-14T10:52:57Z</time>
      </trkpt>
      <trkpt lat="46.25754" lon="6.88699">
        <ele>2081</ele>
        <time>2021-02-14T10:53:07Z</time>
      </trkpt>
      <trkpt lat="46.25756" lon="6.88711">
        <ele>2080</ele>
        <time>2021-02-14T10:53:17Z</time>
      </trkpt>
      <trkpt lat="46.25758" lon="6.88719">
        <ele>2082</ele>
        <time>2021-02-14T10:53:27Z</time>
      </trkpt>
      <trkpt lat="46.2576" lon="6.88728">
        <ele>2083</ele>
        <time>2021-02-14T10:53:37Z</time>
      </trkpt>
      <trkpt lat="46.25762" lon="6.88736">
        <ele>2085</ele>
        <time>2021-02-14T10:53:47Z</time>
      </trkpt>
      <trkpt lat="46.25763" lon="6.88745">
        <ele>2086</ele>
        <time>2021-02-14T10:53:57Z</time>
      </trkpt>
      <trkpt lat="46.25766" lon="6.88752">
        <ele>2088</ele>
        <time>2021-02-14T10:54:07Z</time>
      </trkpt>
      <trkpt lat="46.25768" lon="6.8875">
        <ele>2089</ele>
        <time>2021-02-14T10:54:47Z</time>
      </trkpt>
      <trkpt lat="46.25767" lon="6.88759">
        <ele>2091</ele>
        <time>2021-02-14T10:55:17Z</time>
      </trkpt>
      <trkpt lat="46.25771" lon="6.88759">
        <ele>2091</ele>
        <time>2021-02-14T10:55:42Z</time>
      </trkpt>
      <trkpt lat="46.25766" lon="6.88753">
        <ele>2092</ele>
        <time>2021-02-14T10:57:46Z</time>
      </trkpt>
      <trkpt lat="46.25765" lon="6.88744">
        <ele>2092</ele>
        <time>2021-02-14T10:57:56Z</time>
      </trkpt>
      <trkpt lat="46.25764" lon="6.88735">
        <ele>2090</ele>
        <time>2021-02-14T10:58:06Z</time>
      </trkpt>
      <trkpt lat="46.25762" lon="6.88729">
        <ele>2090</ele>
        <time>2021-02-14T10:58:11Z</time>
      </trkpt>
      <trkpt lat="46.2576" lon="6.8872">
        <ele>2088</ele>
        <time>2021-02-14T10:58:21Z</time>
      </trkpt>
      <trkpt lat="46.25761" lon="6.88709">
        <ele>2087</ele>
        <time>2021-02-14T10:58:31Z</time>
      </trkpt>
      <trkpt lat="46.2576" lon="6.88701">
        <ele>2088</ele>
        <time>2021-02-14T10:58:40Z</time>
      </trkpt>
      <trkpt lat="46.25756" lon="6.88699">
        <ele>2088</ele>
        <time>2021-02-14T10:58:51Z</time>
      </trkpt>
      <trkpt lat="46.25757" lon="6.88697">
        <ele>2086</ele>
        <time>2021-02-14T10:59:11Z</time>
      </trkpt>
      <trkpt lat="46.25761" lon="6.88694">
        <ele>2086</ele>
        <time>2021-02-14T10:59:46Z</time>
      </trkpt>
      <trkpt lat="46.25757" lon="6.88707">
        <ele>2086</ele>
        <time>2021-02-14T11:00:01Z</time>
      </trkpt>
      <trkpt lat="46.25758" lon="6.88716">
        <ele>2086</ele>
        <time>2021-02-14T11:00:06Z</time>
      </trkpt>
      <trkpt lat="46.25761" lon="6.88722">
        <ele>2086</ele>
        <time>2021-02-14T11:00:11Z</time>
      </trkpt>
      <trkpt lat="46.25761" lon="6.88731">
        <ele>2085</ele>
        <time>2021-02-14T11:00:16Z</time>
      </trkpt>
      <trkpt lat="46.25762" lon="6.88739">
        <ele>2087</ele>
        <time>2021-02-14T11:00:26Z</time>
      </trkpt>
      <trkpt lat="46.25764" lon="6.88749">
        <ele>2090</ele>
        <time>2021-02-14T11:00:36Z</time>
      </trkpt>
      <trkpt lat="46.25767" lon="6.88762">
        <ele>2091</ele>
        <time>2021-02-14T11:00:51Z</time>
      </trkpt>
      <trkpt lat="46.25768" lon="6.88757">
        <ele>2092</ele>
        <time>2021-02-14T11:01:51Z</time>
      </trkpt>
      <trkpt lat="46.25768" lon="6.88759">
        <ele>2092</ele>
        <time>2021-02-14T11:02:55Z</time>
      </trkpt>
      <trkpt lat="46.25766" lon="6.8876">
        <ele>2093</ele>
        <time>2021-02-14T11:04:01Z</time>
      </trkpt>
      <trkpt lat="46.25765" lon="6.8875">
        <ele>2093</ele>
        <time>2021-02-14T11:04:51Z</time>
      </trkpt>
      <trkpt lat="46.25763" lon="6.88736">
        <ele>2091</ele>
        <time>2021-02-14T11:05:01Z</time>
      </trkpt>
      <trkpt lat="46.25763" lon="6.88723">
        <ele>2089</ele>
        <time>2021-02-14T11:05:12Z</time>
      </trkpt>
      <trkpt lat="46.25762" lon="6.88706">
        <ele>2089</ele>
        <time>2021-02-14T11:05:28Z</time>
      </trkpt>
      <trkpt lat="46.2576" lon="6.88697">
        <ele>2089</ele>
        <time>2021-02-14T11:05:38Z</time>
      </trkpt>
      <trkpt lat="46.25759" lon="6.88691">
        <ele>2089</ele>
        <time>2021-02-14T11:06:38Z</time>
      </trkpt>
      <trkpt lat="46.25756" lon="6.88695">
        <ele>2087</ele>
        <time>2021-02-14T11:14:27Z</time>
      </trkpt>
      <trkpt lat="46.25756" lon="6.88696">
        <ele>2087</ele>
        <time>2021-02-14T11:22:12Z</time>
      </trkpt>
      <trkpt lat="46.25758" lon="6.88696">
        <ele>2088</ele>
        <time>2021-02-14T11:23:22Z</time>
      </trkpt>
      <trkpt lat="46.25757" lon="6.88696">
        <ele>2088</ele>
        <time>2021-02-14T11:24:07Z</time>
      </trkpt>
      <trkpt lat="46.25757" lon="6.88696">
        <ele>2088</ele>
        <time>2021-02-14T11:27:32Z</time>
      </trkpt>
      <trkpt lat="46.25757" lon="6.88696">
        <ele>2087</ele>
        <time>2021-02-14T11:34:07Z</time>
      </trkpt>
      <trkpt lat="46.25758" lon="6.88692">
        <ele>2088</ele>
        <time>2021-02-14T11:34:37Z</time>
      </trkpt>
      <trkpt lat="46.25758" lon="6.88693">
        <ele>2091</ele>
        <time>2021-02-14T11:35:43Z</time>
      </trkpt>
      <trkpt lat="46.2576" lon="6.88697">
        <ele>2091</ele>
        <time>2021-02-14T11:35:58Z</time>
      </trkpt>
      <trkpt lat="46.25758" lon="6.887">
        <ele>2088</ele>
        <time>2021-02-14T11:36:18Z</time>
      </trkpt>
      <trkpt lat="46.25758" lon="6.88692">
        <ele>2088</ele>
        <time>2021-02-14T11:36:28Z</time>
      </trkpt>
      <trkpt lat="46.25754" lon="6.88688">
        <ele>2087</ele>
        <time>2021-02-14T11:37:27Z</time>
      </trkpt>
      <trkpt lat="46.25752" lon="6.88676">
        <ele>2087</ele>
        <time>2021-02-14T11:37:43Z</time>
      </trkpt>
      <trkpt lat="46.2575" lon="6.8867">
        <ele>2086</ele>
        <time>2021-02-14T11:37:48Z</time>
      </trkpt>
      <trkpt lat="46.25749" lon="6.88657">
        <ele>2086</ele>
        <time>2021-02-14T11:37:58Z</time>
      </trkpt>
      <trkpt lat="46.25748" lon="6.88643">
        <ele>2087</ele>
        <time>2021-02-14T11:38:09Z</time>
      </trkpt>
      <trkpt lat="46.25747" lon="6.88632">
        <ele>2085</ele>
        <time>2021-02-14T11:38:19Z</time>
      </trkpt>
      <trkpt lat="46.25744" lon="6.88621">
        <ele>2085</ele>
        <time>2021-02-14T11:38:29Z</time>
      </trkpt>
      <trkpt lat="46.25741" lon="6.8861">
        <ele>2084</ele>
        <time>2021-02-14T11:38:40Z</time>
      </trkpt>
      <trkpt lat="46.25739" lon="6.88597">
        <ele>2083</ele>
        <time>2021-02-14T11:38:51Z</time>
      </trkpt>
      <trkpt lat="46.25736" lon="6.88585">
        <ele>2081</ele>
        <time>2021-02-14T11:39:01Z</time>
      </trkpt>
      <trkpt lat="46.25735" lon="6.88578">
        <ele>2081</ele>
        <time>2021-02-14T11:39:07Z</time>
      </trkpt>
      <trkpt lat="46.25734" lon="6.8857">
        <ele>2081</ele>
        <time>2021-02-14T11:39:13Z</time>
      </trkpt>
      <trkpt lat="46.25734" lon="6.88561">
        <ele>2079</ele>
        <time>2021-02-14T11:39:18Z</time>
      </trkpt>
      <trkpt lat="46.25736" lon="6.88548">
        <ele>2078</ele>
        <time>2021-02-14T11:39:28Z</time>
      </trkpt>
      <trkpt lat="46.25737" lon="6.88541">
        <ele>2077</ele>
        <time>2021-02-14T11:39:33Z</time>
      </trkpt>
      <trkpt lat="46.25742" lon="6.88527">
        <ele>2075</ele>
        <time>2021-02-14T11:39:43Z</time>
      </trkpt>
      <trkpt lat="46.25747" lon="6.88514">
        <ele>2073</ele>
        <time>2021-02-14T11:39:53Z</time>
      </trkpt>
      <trkpt lat="46.2575" lon="6.88507">
        <ele>2073</ele>
        <time>2021-02-14T11:39:58Z</time>
      </trkpt>
      <trkpt lat="46.25753" lon="6.88495">
        <ele>2071</ele>
        <time>2021-02-14T11:40:04Z</time>
      </trkpt>
      <trkpt lat="46.25757" lon="6.88484">
        <ele>2069</ele>
        <time>2021-02-14T11:40:11Z</time>
      </trkpt>
      <trkpt lat="46.25758" lon="6.88472">
        <ele>2068</ele>
        <time>2021-02-14T11:40:16Z</time>
      </trkpt>
      <trkpt lat="46.25761" lon="6.88457">
        <ele>2065</ele>
        <time>2021-02-14T11:40:31Z</time>
      </trkpt>
      <trkpt lat="46.25762" lon="6.88453">
        <ele>2064</ele>
        <time>2021-02-14T11:40:36Z</time>
      </trkpt>
      <trkpt lat="46.25765" lon="6.88439">
        <ele>2059</ele>
        <time>2021-02-14T11:41:11Z</time>
      </trkpt>
      <trkpt lat="46.25765" lon="6.88433">
        <ele>2059</ele>
        <time>2021-02-14T11:41:16Z</time>
      </trkpt>
      <trkpt lat="46.25766" lon="6.88424">
        <ele>2057</ele>
        <time>2021-02-14T11:41:21Z</time>
      </trkpt>
      <trkpt lat="46.25767" lon="6.88415">
        <ele>2056</ele>
        <time>2021-02-14T11:41:26Z</time>
      </trkpt>
      <trkpt lat="46.25766" lon="6.88406">
        <ele>2055</ele>
        <time>2021-02-14T11:41:31Z</time>
      </trkpt>
      <trkpt lat="46.25765" lon="6.88399">
        <ele>2052</ele>
        <time>2021-02-14T11:41:36Z</time>
      </trkpt>
      <trkpt lat="46.25765" lon="6.88386">
        <ele>2051</ele>
        <time>2021-02-14T11:41:46Z</time>
      </trkpt>
      <trkpt lat="46.25765" lon="6.88373">
        <ele>2048</ele>
        <time>2021-02-14T11:41:56Z</time>
      </trkpt>
      <trkpt lat="46.25765" lon="6.88359">
        <ele>2047</ele>
        <time>2021-02-14T11:42:16Z</time>
      </trkpt>
      <trkpt lat="46.25762" lon="6.88351">
        <ele>2044</ele>
        <time>2021-02-14T11:42:26Z</time>
      </trkpt>
      <trkpt lat="46.2576" lon="6.88339">
        <ele>2042</ele>
        <time>2021-02-14T11:42:36Z</time>
      </trkpt>
      <trkpt lat="46.25759" lon="6.88326">
        <ele>2040</ele>
        <time>2021-02-14T11:42:46Z</time>
      </trkpt>
      <trkpt lat="46.25756" lon="6.88318">
        <ele>2037</ele>
        <time>2021-02-14T11:42:56Z</time>
      </trkpt>
      <trkpt lat="46.25754" lon="6.88305">
        <ele>2034</ele>
        <time>2021-02-14T11:43:06Z</time>
      </trkpt>
      <trkpt lat="46.25752" lon="6.88295">
        <ele>2031</ele>
        <time>2021-02-14T11:43:16Z</time>
      </trkpt>
      <trkpt lat="46.25752" lon="6.88286">
        <ele>2029</ele>
        <time>2021-02-14T11:43:26Z</time>
      </trkpt>
      <trkpt lat="46.25752" lon="6.88274">
        <ele>2026</ele>
        <time>2021-02-14T11:43:36Z</time>
      </trkpt>
      <trkpt lat="46.25755" lon="6.8826">
        <ele>2025</ele>
        <time>2021-02-14T11:43:46Z</time>
      </trkpt>
      <trkpt lat="46.25756" lon="6.88252">
        <ele>2025</ele>
        <time>2021-02-14T11:44:11Z</time>
      </trkpt>
      <trkpt lat="46.25757" lon="6.88247">
        <ele>2023</ele>
        <time>2021-02-14T11:44:16Z</time>
      </trkpt>
      <trkpt lat="46.25758" lon="6.88237">
        <ele>2019</ele>
        <time>2021-02-14T11:44:26Z</time>
      </trkpt>
      <trkpt lat="46.25758" lon="6.88227">
        <ele>2017</ele>
        <time>2021-02-14T11:44:35Z</time>
      </trkpt>
      <trkpt lat="46.25759" lon="6.8822">
        <ele>2015</ele>
        <time>2021-02-14T11:44:41Z</time>
      </trkpt>
      <trkpt lat="46.25759" lon="6.88207">
        <ele>2013</ele>
        <time>2021-02-14T11:44:51Z</time>
      </trkpt>
      <trkpt lat="46.25759" lon="6.88201">
        <ele>2011</ele>
        <time>2021-02-14T11:44:56Z</time>
      </trkpt>
      <trkpt lat="46.2576" lon="6.88187">
        <ele>2010</ele>
        <time>2021-02-14T11:45:06Z</time>
      </trkpt>
      <trkpt lat="46.25761" lon="6.88175">
        <ele>2010</ele>
        <time>2021-02-14T11:45:16Z</time>
      </trkpt>
      <trkpt lat="46.2576" lon="6.88164">
        <ele>2009</ele>
        <time>2021-02-14T11:45:31Z</time>
      </trkpt>
      <trkpt lat="46.2576" lon="6.88158">
        <ele>2008</ele>
        <time>2021-02-14T11:45:36Z</time>
      </trkpt>
      <trkpt lat="46.25759" lon="6.88148">
        <ele>2006</ele>
        <time>2021-02-14T11:45:46Z</time>
      </trkpt>
      <trkpt lat="46.25759" lon="6.88138">
        <ele>2004</ele>
        <time>2021-02-14T11:45:56Z</time>
      </trkpt>
      <trkpt lat="46.25759" lon="6.88128">
        <ele>2002</ele>
        <time>2021-02-14T11:46:06Z</time>
      </trkpt>
      <trkpt lat="46.25758" lon="6.88116">
        <ele>2000</ele>
        <time>2021-02-14T11:46:16Z</time>
      </trkpt>
      <trkpt lat="46.25756" lon="6.88104">
        <ele>1999</ele>
        <time>2021-02-14T11:46:26Z</time>
      </trkpt>
      <trkpt lat="46.25758" lon="6.88091">
        <ele>1997</ele>
        <time>2021-02-14T11:46:36Z</time>
      </trkpt>
      <trkpt lat="46.25759" lon="6.88079">
        <ele>1997</ele>
        <time>2021-02-14T11:46:46Z</time>
      </trkpt>
      <trkpt lat="46.25763" lon="6.88068">
        <ele>1995</ele>
        <time>2021-02-14T11:46:56Z</time>
      </trkpt>
      <trkpt lat="46.25766" lon="6.88057">
        <ele>1994</ele>
        <time>2021-02-14T11:47:05Z</time>
      </trkpt>
      <trkpt lat="46.25771" lon="6.88045">
        <ele>1994</ele>
        <time>2021-02-14T11:47:16Z</time>
      </trkpt>
      <trkpt lat="46.25777" lon="6.88035">
        <ele>1992</ele>
        <time>2021-02-14T11:47:26Z</time>
      </trkpt>
      <trkpt lat="46.25782" lon="6.88024">
        <ele>1992</ele>
        <time>2021-02-14T11:47:36Z</time>
      </trkpt>
      <trkpt lat="46.25787" lon="6.88013">
        <ele>1990</ele>
        <time>2021-02-14T11:47:46Z</time>
      </trkpt>
      <trkpt lat="46.25792" lon="6.88004">
        <ele>1988</ele>
        <time>2021-02-14T11:47:56Z</time>
      </trkpt>
      <trkpt lat="46.25794" lon="6.87993">
        <ele>1986</ele>
        <time>2021-02-14T11:48:06Z</time>
      </trkpt>
      <trkpt lat="46.25796" lon="6.87982">
        <ele>1985</ele>
        <time>2021-02-14T11:48:16Z</time>
      </trkpt>
      <trkpt lat="46.25799" lon="6.87972">
        <ele>1982</ele>
        <time>2021-02-14T11:48:26Z</time>
      </trkpt>
      <trkpt lat="46.25801" lon="6.87964">
        <ele>1980</ele>
        <time>2021-02-14T11:48:36Z</time>
      </trkpt>
      <trkpt lat="46.25805" lon="6.87951">
        <ele>1977</ele>
        <time>2021-02-14T11:48:56Z</time>
      </trkpt>
      <trkpt lat="46.2581" lon="6.87942">
        <ele>1975</ele>
        <time>2021-02-14T11:49:06Z</time>
      </trkpt>
      <trkpt lat="46.25814" lon="6.87935">
        <ele>1975</ele>
        <time>2021-02-14T11:49:16Z</time>
      </trkpt>
      <trkpt lat="46.25819" lon="6.87924">
        <ele>1973</ele>
        <time>2021-02-14T11:49:26Z</time>
      </trkpt>
      <trkpt lat="46.25823" lon="6.87913">
        <ele>1971</ele>
        <time>2021-02-14T11:49:35Z</time>
      </trkpt>
      <trkpt lat="46.25825" lon="6.87909">
        <ele>1972</ele>
        <time>2021-02-14T11:49:41Z</time>
      </trkpt>
      <trkpt lat="46.25829" lon="6.879">
        <ele>1973</ele>
        <time>2021-02-14T11:49:56Z</time>
      </trkpt>
      <trkpt lat="46.25832" lon="6.87892">
        <ele>1971</ele>
        <time>2021-02-14T11:50:11Z</time>
      </trkpt>
      <trkpt lat="46.25835" lon="6.87888">
        <ele>1970</ele>
        <time>2021-02-14T11:50:16Z</time>
      </trkpt>
      <trkpt lat="46.25839" lon="6.87878">
        <ele>1969</ele>
        <time>2021-02-14T11:50:26Z</time>
      </trkpt>
      <trkpt lat="46.25846" lon="6.87871">
        <ele>1969</ele>
        <time>2021-02-14T11:50:36Z</time>
      </trkpt>
      <trkpt lat="46.2585" lon="6.87865">
        <ele>1968</ele>
        <time>2021-02-14T11:50:46Z</time>
      </trkpt>
      <trkpt lat="46.25854" lon="6.87862">
        <ele>1968</ele>
        <time>2021-02-14T11:50:56Z</time>
      </trkpt>
      <trkpt lat="46.25855" lon="6.87852">
        <ele>1964</ele>
        <time>2021-02-14T11:51:06Z</time>
      </trkpt>
      <trkpt lat="46.25858" lon="6.87847">
        <ele>1963</ele>
        <time>2021-02-14T11:51:21Z</time>
      </trkpt>
      <trkpt lat="46.25861" lon="6.87835">
        <ele>1959</ele>
        <time>2021-02-14T11:51:31Z</time>
      </trkpt>
      <trkpt lat="46.25862" lon="6.8783">
        <ele>1958</ele>
        <time>2021-02-14T11:51:36Z</time>
      </trkpt>
      <trkpt lat="46.25864" lon="6.87824">
        <ele>1956</ele>
        <time>2021-02-14T11:52:05Z</time>
      </trkpt>
      <trkpt lat="46.25868" lon="6.87814">
        <ele>1954</ele>
        <time>2021-02-14T11:52:16Z</time>
      </trkpt>
      <trkpt lat="46.25872" lon="6.87805">
        <ele>1953</ele>
        <time>2021-02-14T11:52:24Z</time>
      </trkpt>
      <trkpt lat="46.25879" lon="6.87797">
        <ele>1953</ele>
        <time>2021-02-14T11:52:33Z</time>
      </trkpt>
      <trkpt lat="46.25885" lon="6.87788">
        <ele>1951</ele>
        <time>2021-02-14T11:52:43Z</time>
      </trkpt>
      <trkpt lat="46.25888" lon="6.87786">
        <ele>1949</ele>
        <time>2021-02-14T11:52:48Z</time>
      </trkpt>
      <trkpt lat="46.25893" lon="6.87784">
        <ele>1948</ele>
        <time>2021-02-14T11:52:53Z</time>
      </trkpt>
      <trkpt lat="46.25901" lon="6.87775">
        <ele>1947</ele>
        <time>2021-02-14T11:53:03Z</time>
      </trkpt>
      <trkpt lat="46.25905" lon="6.87772">
        <ele>1945</ele>
        <time>2021-02-14T11:53:08Z</time>
      </trkpt>
      <trkpt lat="46.25914" lon="6.8777">
        <ele>1945</ele>
        <time>2021-02-14T11:53:18Z</time>
      </trkpt>
      <trkpt lat="46.25915" lon="6.87764">
        <ele>1943</ele>
        <time>2021-02-14T11:53:28Z</time>
      </trkpt>
      <trkpt lat="46.25913" lon="6.87755">
        <ele>1941</ele>
        <time>2021-02-14T11:53:33Z</time>
      </trkpt>
      <trkpt lat="46.25913" lon="6.87746">
        <ele>1940</ele>
        <time>2021-02-14T11:53:38Z</time>
      </trkpt>
      <trkpt lat="46.2591" lon="6.87733">
        <ele>1938</ele>
        <time>2021-02-14T11:53:48Z</time>
      </trkpt>
      <trkpt lat="46.25909" lon="6.87722">
        <ele>1937</ele>
        <time>2021-02-14T11:53:58Z</time>
      </trkpt>
      <trkpt lat="46.25912" lon="6.87715">
        <ele>1933</ele>
        <time>2021-02-14T11:54:28Z</time>
      </trkpt>
      <trkpt lat="46.25914" lon="6.87701">
        <ele>1929</ele>
        <time>2021-02-14T11:54:38Z</time>
      </trkpt>
      <trkpt lat="46.25909" lon="6.87689">
        <ele>1926</ele>
        <time>2021-02-14T11:54:48Z</time>
      </trkpt>
      <trkpt lat="46.25909" lon="6.87692">
        <ele>1923</ele>
        <time>2021-02-14T11:55:33Z</time>
      </trkpt>
      <trkpt lat="46.2591" lon="6.8768">
        <ele>1921</ele>
        <time>2021-02-14T11:55:48Z</time>
      </trkpt>
      <trkpt lat="46.25912" lon="6.87668">
        <ele>1920</ele>
        <time>2021-02-14T11:55:53Z</time>
      </trkpt>
      <trkpt lat="46.25909" lon="6.87661">
        <ele>1918</ele>
        <time>2021-02-14T11:55:58Z</time>
      </trkpt>
      <trkpt lat="46.25906" lon="6.87653">
        <ele>1915</ele>
        <time>2021-02-14T11:56:03Z</time>
      </trkpt>
      <trkpt lat="46.25906" lon="6.87644">
        <ele>1912</ele>
        <time>2021-02-14T11:56:08Z</time>
      </trkpt>
      <trkpt lat="46.25906" lon="6.87631">
        <ele>1908</ele>
        <time>2021-02-14T11:56:18Z</time>
      </trkpt>
      <trkpt lat="46.25908" lon="6.87617">
        <ele>1906</ele>
        <time>2021-02-14T11:56:28Z</time>
      </trkpt>
      <trkpt lat="46.25907" lon="6.87603">
        <ele>1903</ele>
        <time>2021-02-14T11:56:38Z</time>
      </trkpt>
      <trkpt lat="46.25908" lon="6.87592">
        <ele>1900</ele>
        <time>2021-02-14T11:56:43Z</time>
      </trkpt>
      <trkpt lat="46.25908" lon="6.87581">
        <ele>1899</ele>
        <time>2021-02-14T11:56:48Z</time>
      </trkpt>
      <trkpt lat="46.25908" lon="6.87571">
        <ele>1897</ele>
        <time>2021-02-14T11:56:53Z</time>
      </trkpt>
      <trkpt lat="46.25909" lon="6.8756">
        <ele>1893</ele>
        <time>2021-02-14T11:56:58Z</time>
      </trkpt>
      <trkpt lat="46.2591" lon="6.8755">
        <ele>1890</ele>
        <time>2021-02-14T11:57:03Z</time>
      </trkpt>
      <trkpt lat="46.25909" lon="6.8754">
        <ele>1888</ele>
        <time>2021-02-14T11:57:08Z</time>
      </trkpt>
      <trkpt lat="46.25911" lon="6.8753">
        <ele>1886</ele>
        <time>2021-02-14T11:57:13Z</time>
      </trkpt>
      <trkpt lat="46.25911" lon="6.8752">
        <ele>1883</ele>
        <time>2021-02-14T11:57:18Z</time>
      </trkpt>
      <trkpt lat="46.2591" lon="6.87509">
        <ele>1881</ele>
        <time>2021-02-14T11:57:23Z</time>
      </trkpt>
      <trkpt lat="46.25906" lon="6.875">
        <ele>1879</ele>
        <time>2021-02-14T11:57:28Z</time>
      </trkpt>
      <trkpt lat="46.25905" lon="6.87487">
        <ele>1876</ele>
        <time>2021-02-14T11:57:38Z</time>
      </trkpt>
      <trkpt lat="46.25901" lon="6.87471">
        <ele>1872</ele>
        <time>2021-02-14T11:57:48Z</time>
      </trkpt>
      <trkpt lat="46.25899" lon="6.87461">
        <ele>1870</ele>
        <time>2021-02-14T11:57:53Z</time>
      </trkpt>
      <trkpt lat="46.259" lon="6.8745">
        <ele>1868</ele>
        <time>2021-02-14T11:57:58Z</time>
      </trkpt>
      <trkpt lat="46.25899" lon="6.87438">
        <ele>1865</ele>
        <time>2021-02-14T11:58:03Z</time>
      </trkpt>
      <trkpt lat="46.25895" lon="6.87425">
        <ele>1863</ele>
        <time>2021-02-14T11:58:08Z</time>
      </trkpt>
      <trkpt lat="46.2589" lon="6.87413">
        <ele>1860</ele>
        <time>2021-02-14T11:58:13Z</time>
      </trkpt>
      <trkpt lat="46.25885" lon="6.87401">
        <ele>1858</ele>
        <time>2021-02-14T11:58:18Z</time>
      </trkpt>
      <trkpt lat="46.25881" lon="6.87388">
        <ele>1856</ele>
        <time>2021-02-14T11:58:23Z</time>
      </trkpt>
      <trkpt lat="46.25877" lon="6.87375">
        <ele>1855</ele>
        <time>2021-02-14T11:58:28Z</time>
      </trkpt>
      <trkpt lat="46.25872" lon="6.87365">
        <ele>1853</ele>
        <time>2021-02-14T11:58:33Z</time>
      </trkpt>
      <trkpt lat="46.25871" lon="6.87358">
        <ele>1852</ele>
        <time>2021-02-14T11:58:48Z</time>
      </trkpt>
      <trkpt lat="46.25868" lon="6.8735">
        <ele>1850</ele>
        <time>2021-02-14T11:58:58Z</time>
      </trkpt>
      <trkpt lat="46.25867" lon="6.87349">
        <ele>1849</ele>
        <time>2021-02-14T12:03:55Z</time>
      </trkpt>
      <trkpt lat="46.2587" lon="6.87339">
        <ele>1845</ele>
        <time>2021-02-14T12:04:15Z</time>
      </trkpt>
      <trkpt lat="46.25873" lon="6.87332">
        <ele>1845</ele>
        <time>2021-02-14T12:04:20Z</time>
      </trkpt>
      <trkpt lat="46.25876" lon="6.87321">
        <ele>1844</ele>
        <time>2021-02-14T12:04:30Z</time>
      </trkpt>
      <trkpt lat="46.25884" lon="6.87301">
        <ele>1841</ele>
        <time>2021-02-14T12:04:40Z</time>
      </trkpt>
      <trkpt lat="46.2589" lon="6.87286">
        <ele>1838</ele>
        <time>2021-02-14T12:04:45Z</time>
      </trkpt>
      <trkpt lat="46.25894" lon="6.87274">
        <ele>1836</ele>
        <time>2021-02-14T12:04:50Z</time>
      </trkpt>
      <trkpt lat="46.25898" lon="6.87273">
        <ele>1833</ele>
        <time>2021-02-14T12:05:00Z</time>
      </trkpt>
      <trkpt lat="46.25908" lon="6.87267">
        <ele>1830</ele>
        <time>2021-02-14T12:05:10Z</time>
      </trkpt>
      <trkpt lat="46.25917" lon="6.87259">
        <ele>1826</ele>
        <time>2021-02-14T12:05:20Z</time>
      </trkpt>
      <trkpt lat="46.25926" lon="6.87254">
        <ele>1823</ele>
        <time>2021-02-14T12:05:30Z</time>
      </trkpt>
      <trkpt lat="46.25935" lon="6.87248">
        <ele>1821</ele>
        <time>2021-02-14T12:05:40Z</time>
      </trkpt>
      <trkpt lat="46.25944" lon="6.87242">
        <ele>1819</ele>
        <time>2021-02-14T12:05:55Z</time>
      </trkpt>
      <trkpt lat="46.25942" lon="6.87245">
        <ele>1818</ele>
        <time>2021-02-14T12:06:10Z</time>
      </trkpt>
      <trkpt lat="46.25939" lon="6.87249">
        <ele>1817</ele>
        <time>2021-02-14T12:06:20Z</time>
      </trkpt>
      <trkpt lat="46.25942" lon="6.87246">
        <ele>1818</ele>
        <time>2021-02-14T12:08:23Z</time>
      </trkpt>
      <trkpt lat="46.2594" lon="6.87244">
        <ele>1820</ele>
        <time>2021-02-14T12:08:48Z</time>
      </trkpt>
      <trkpt lat="46.25946" lon="6.87242">
        <ele>1816</ele>
        <time>2021-02-14T12:09:28Z</time>
      </trkpt>
      <trkpt lat="46.25948" lon="6.87228">
        <ele>1815</ele>
        <time>2021-02-14T12:09:38Z</time>
      </trkpt>
      <trkpt lat="46.2595" lon="6.87218">
        <ele>1814</ele>
        <time>2021-02-14T12:09:43Z</time>
      </trkpt>
      <trkpt lat="46.25953" lon="6.87209">
        <ele>1813</ele>
        <time>2021-02-14T12:09:48Z</time>
      </trkpt>
      <trkpt lat="46.25961" lon="6.87201">
        <ele>1810</ele>
        <time>2021-02-14T12:09:58Z</time>
      </trkpt>
      <trkpt lat="46.25965" lon="6.872">
        <ele>1810</ele>
        <time>2021-02-14T12:10:08Z</time>
      </trkpt>
      <trkpt lat="46.25974" lon="6.872">
        <ele>1807</ele>
        <time>2021-02-14T12:10:52Z</time>
      </trkpt>
      <trkpt lat="46.25983" lon="6.87201">
        <ele>1805</ele>
        <time>2021-02-14T12:11:02Z</time>
      </trkpt>
      <trkpt lat="46.25988" lon="6.87199">
        <ele>1806</ele>
        <time>2021-02-14T12:11:12Z</time>
      </trkpt>
      <trkpt lat="46.25998" lon="6.87198">
        <ele>1806</ele>
        <time>2021-02-14T12:11:22Z</time>
      </trkpt>
      <trkpt lat="46.26006" lon="6.87196">
        <ele>1805</ele>
        <time>2021-02-14T12:11:32Z</time>
      </trkpt>
      <trkpt lat="46.26014" lon="6.87194">
        <ele>1802</ele>
        <time>2021-02-14T12:11:42Z</time>
      </trkpt>
      <trkpt lat="46.26024" lon="6.8719">
        <ele>1802</ele>
        <time>2021-02-14T12:11:52Z</time>
      </trkpt>
      <trkpt lat="46.26037" lon="6.87186">
        <ele>1801</ele>
        <time>2021-02-14T12:12:04Z</time>
      </trkpt>
      <trkpt lat="46.26039" lon="6.87184">
        <ele>1800</ele>
        <time>2021-02-14T12:12:10Z</time>
      </trkpt>
      <trkpt lat="46.26043" lon="6.87181">
        <ele>1800</ele>
        <time>2021-02-14T12:12:16Z</time>
      </trkpt>
      <trkpt lat="46.26054" lon="6.87182">
        <ele>1799</ele>
        <time>2021-02-14T12:12:27Z</time>
      </trkpt>
      <trkpt lat="46.26063" lon="6.87181">
        <ele>1798</ele>
        <time>2021-02-14T12:12:37Z</time>
      </trkpt>
      <trkpt lat="46.26068" lon="6.87183">
        <ele>1797</ele>
        <time>2021-02-14T12:12:43Z</time>
      </trkpt>
      <trkpt lat="46.26079" lon="6.87183">
        <ele>1795</ele>
        <time>2021-02-14T12:12:54Z</time>
      </trkpt>
      <trkpt lat="46.26082" lon="6.87183">
        <ele>1795</ele>
        <time>2021-02-14T12:12:59Z</time>
      </trkpt>
      <trkpt lat="46.26092" lon="6.8718">
        <ele>1793</ele>
        <time>2021-02-14T12:13:11Z</time>
      </trkpt>
      <trkpt lat="46.26098" lon="6.87175">
        <ele>1791</ele>
        <time>2021-02-14T12:13:20Z</time>
      </trkpt>
      <trkpt lat="46.26104" lon="6.87173">
        <ele>1791</ele>
        <time>2021-02-14T12:13:27Z</time>
      </trkpt>
      <trkpt lat="46.26112" lon="6.87173">
        <ele>1789</ele>
        <time>2021-02-14T12:13:37Z</time>
      </trkpt>
      <trkpt lat="46.26118" lon="6.87173">
        <ele>1788</ele>
        <time>2021-02-14T12:13:42Z</time>
      </trkpt>
      <trkpt lat="46.26124" lon="6.87169">
        <ele>1786</ele>
        <time>2021-02-14T12:13:47Z</time>
      </trkpt>
      <trkpt lat="46.2613" lon="6.87162">
        <ele>1785</ele>
        <time>2021-02-14T12:13:52Z</time>
      </trkpt>
      <trkpt lat="46.26138" lon="6.87154">
        <ele>1783</ele>
        <time>2021-02-14T12:13:57Z</time>
      </trkpt>
      <trkpt lat="46.2614" lon="6.87148">
        <ele>1781</ele>
        <time>2021-02-14T12:14:02Z</time>
      </trkpt>
      <trkpt lat="46.26148" lon="6.87145">
        <ele>1778</ele>
        <time>2021-02-14T12:14:12Z</time>
      </trkpt>
      <trkpt lat="46.26155" lon="6.87137">
        <ele>1776</ele>
        <time>2021-02-14T12:14:22Z</time>
      </trkpt>
      <trkpt lat="46.26163" lon="6.87131">
        <ele>1774</ele>
        <time>2021-02-14T12:14:32Z</time>
      </trkpt>
      <trkpt lat="46.26167" lon="6.87123">
        <ele>1771</ele>
        <time>2021-02-14T12:14:42Z</time>
      </trkpt>
      <trkpt lat="46.26173" lon="6.87123">
        <ele>1770</ele>
        <time>2021-02-14T12:14:52Z</time>
      </trkpt>
      <trkpt lat="46.26181" lon="6.87121">
        <ele>1767</ele>
        <time>2021-02-14T12:15:02Z</time>
      </trkpt>
      <trkpt lat="46.26188" lon="6.87123">
        <ele>1766</ele>
        <time>2021-02-14T12:15:12Z</time>
      </trkpt>
      <trkpt lat="46.26195" lon="6.87124">
        <ele>1764</ele>
        <time>2021-02-14T12:15:22Z</time>
      </trkpt>
      <trkpt lat="46.262" lon="6.87124">
        <ele>1763</ele>
        <time>2021-02-14T12:15:32Z</time>
      </trkpt>
      <trkpt lat="46.26205" lon="6.87124">
        <ele>1761</ele>
        <time>2021-02-14T12:16:02Z</time>
      </trkpt>
      <trkpt lat="46.26215" lon="6.87125">
        <ele>1760</ele>
        <time>2021-02-14T12:16:22Z</time>
      </trkpt>
      <trkpt lat="46.26222" lon="6.87127">
        <ele>1758</ele>
        <time>2021-02-14T12:16:32Z</time>
      </trkpt>
      <trkpt lat="46.26229" lon="6.87128">
        <ele>1757</ele>
        <time>2021-02-14T12:16:42Z</time>
      </trkpt>
      <trkpt lat="46.26237" lon="6.8713">
        <ele>1754</ele>
        <time>2021-02-14T12:16:52Z</time>
      </trkpt>
      <trkpt lat="46.26245" lon="6.87129">
        <ele>1753</ele>
        <time>2021-02-14T12:17:02Z</time>
      </trkpt>
      <trkpt lat="46.26254" lon="6.87129">
        <ele>1753</ele>
        <time>2021-02-14T12:17:12Z</time>
      </trkpt>
      <trkpt lat="46.26261" lon="6.8713">
        <ele>1751</ele>
        <time>2021-02-14T12:17:22Z</time>
      </trkpt>
      <trkpt lat="46.26267" lon="6.87128">
        <ele>1750</ele>
        <time>2021-02-14T12:17:27Z</time>
      </trkpt>
      <trkpt lat="46.26271" lon="6.87125">
        <ele>1750</ele>
        <time>2021-02-14T12:17:32Z</time>
      </trkpt>
      <trkpt lat="46.26272" lon="6.8712">
        <ele>1749</ele>
        <time>2021-02-14T12:18:52Z</time>
      </trkpt>
      <trkpt lat="46.26271" lon="6.87116">
        <ele>1749</ele>
        <time>2021-02-14T12:20:07Z</time>
      </trkpt>
      <trkpt lat="46.26271" lon="6.87108">
        <ele>1748</ele>
        <time>2021-02-14T12:20:18Z</time>
      </trkpt>
      <trkpt lat="46.26275" lon="6.87099">
        <ele>1746</ele>
        <time>2021-02-14T12:20:28Z</time>
      </trkpt>
      <trkpt lat="46.26274" lon="6.87091">
        <ele>1744</ele>
        <time>2021-02-14T12:20:38Z</time>
      </trkpt>
      <trkpt lat="46.26278" lon="6.87082">
        <ele>1744</ele>
        <time>2021-02-14T12:20:48Z</time>
      </trkpt>
      <trkpt lat="46.26285" lon="6.87083">
        <ele>1744</ele>
        <time>2021-02-14T12:20:58Z</time>
      </trkpt>
      <trkpt lat="46.26284" lon="6.87086">
        <ele>1743</ele>
        <time>2021-02-14T12:21:53Z</time>
      </trkpt>
      <trkpt lat="46.26288" lon="6.87089">
        <ele>1744</ele>
        <time>2021-02-14T12:22:08Z</time>
      </trkpt>
      <trkpt lat="46.26283" lon="6.87084">
        <ele>1743</ele>
        <time>2021-02-14T12:22:18Z</time>
      </trkpt>
      <trkpt lat="46.26285" lon="6.87087">
        <ele>1743</ele>
        <time>2021-02-14T12:22:43Z</time>
      </trkpt>
      <trkpt lat="46.2629" lon="6.87092">
        <ele>1744</ele>
        <time>2021-02-14T12:22:48Z</time>
      </trkpt>
      <trkpt lat="46.26294" lon="6.87094">
        <ele>1744</ele>
        <time>2021-02-14T12:22:58Z</time>
      </trkpt>
      <trkpt lat="46.26291" lon="6.871">
        <ele>1744</ele>
        <time>2021-02-14T12:23:18Z</time>
      </trkpt>
      <trkpt lat="46.263" lon="6.87108">
        <ele>1744</ele>
        <time>2021-02-14T12:23:33Z</time>
      </trkpt>
      <trkpt lat="46.26299" lon="6.87098">
        <ele>1743</ele>
        <time>2021-02-14T12:23:43Z</time>
      </trkpt>
      <trkpt lat="46.26296" lon="6.87086">
        <ele>1742</ele>
        <time>2021-02-14T12:23:58Z</time>
      </trkpt>
      <trkpt lat="46.26293" lon="6.87093">
        <ele>1742</ele>
        <time>2021-02-14T12:24:13Z</time>
      </trkpt>
      <trkpt lat="46.2629" lon="6.87094">
        <ele>1741</ele>
        <time>2021-02-14T12:24:33Z</time>
      </trkpt>
      <trkpt lat="46.26284" lon="6.87089">
        <ele>1743</ele>
        <time>2021-02-14T12:25:03Z</time>
      </trkpt>
      <trkpt lat="46.26277" lon="6.87088">
        <ele>1744</ele>
        <time>2021-02-14T12:25:18Z</time>
      </trkpt>
      <trkpt lat="46.26279" lon="6.87081">
        <ele>1744</ele>
        <time>2021-02-14T12:25:28Z</time>
      </trkpt>
      <trkpt lat="46.26281" lon="6.8708">
        <ele>1746</ele>
        <time>2021-02-14T12:34:58Z</time>
      </trkpt>
      <trkpt lat="46.26278" lon="6.87083">
        <ele>1745</ele>
        <time>2021-02-14T12:36:13Z</time>
      </trkpt>
      <trkpt lat="46.26282" lon="6.87083">
        <ele>1745</ele>
        <time>2021-02-14T12:36:33Z</time>
      </trkpt>
      <trkpt lat="46.26281" lon="6.87081">
        <ele>1745</ele>
        <time>2021-02-14T12:36:48Z</time>
      </trkpt>
      <trkpt lat="46.26285" lon="6.87084">
        <ele>1745</ele>
        <time>2021-02-14T12:37:18Z</time>
      </trkpt>
      <trkpt lat="46.26286" lon="6.87084">
        <ele>1745</ele>
        <time>2021-02-14T12:38:13Z</time>
      </trkpt>
      <trkpt lat="46.26281" lon="6.87082">
        <ele>1745</ele>
        <time>2021-02-14T12:38:23Z</time>
      </trkpt>
      <trkpt lat="46.26282" lon="6.87077">
        <ele>1743</ele>
        <time>2021-02-14T12:39:23Z</time>
      </trkpt>
      <trkpt lat="46.26276" lon="6.87073">
        <ele>1747</ele>
        <time>2021-02-14T12:40:18Z</time>
      </trkpt>
      <trkpt lat="46.26275" lon="6.87059">
        <ele>1745</ele>
        <time>2021-02-14T12:40:28Z</time>
      </trkpt>
      <trkpt lat="46.26281" lon="6.87049">
        <ele>1742</ele>
        <time>2021-02-14T12:40:38Z</time>
      </trkpt>
      <trkpt lat="46.26288" lon="6.87038">
        <ele>1739</ele>
        <time>2021-02-14T12:40:48Z</time>
      </trkpt>
      <trkpt lat="46.26293" lon="6.87026">
        <ele>1737</ele>
        <time>2021-02-14T12:40:58Z</time>
      </trkpt>
      <trkpt lat="46.26297" lon="6.8702">
        <ele>1736</ele>
        <time>2021-02-14T12:41:08Z</time>
      </trkpt>
      <trkpt lat="46.26299" lon="6.87012">
        <ele>1735</ele>
        <time>2021-02-14T12:41:18Z</time>
      </trkpt>
      <trkpt lat="46.26305" lon="6.87">
        <ele>1733</ele>
        <time>2021-02-14T12:41:33Z</time>
      </trkpt>
      <trkpt lat="46.26309" lon="6.86995">
        <ele>1731</ele>
        <time>2021-02-14T12:41:38Z</time>
      </trkpt>
      <trkpt lat="46.26315" lon="6.86985">
        <ele>1730</ele>
        <time>2021-02-14T12:41:48Z</time>
      </trkpt>
      <trkpt lat="46.26325" lon="6.86976">
        <ele>1728</ele>
        <time>2021-02-14T12:41:58Z</time>
      </trkpt>
      <trkpt lat="46.26331" lon="6.86971">
        <ele>1728</ele>
        <time>2021-02-14T12:42:03Z</time>
      </trkpt>
      <trkpt lat="46.26334" lon="6.86962">
        <ele>1727</ele>
        <time>2021-02-14T12:42:11Z</time>
      </trkpt>
      <trkpt lat="46.26336" lon="6.86952">
        <ele>1727</ele>
        <time>2021-02-14T12:42:18Z</time>
      </trkpt>
      <trkpt lat="46.26337" lon="6.86945">
        <ele>1727</ele>
        <time>2021-02-14T12:42:24Z</time>
      </trkpt>
      <trkpt lat="46.26341" lon="6.86931">
        <ele>1726</ele>
        <time>2021-02-14T12:42:35Z</time>
      </trkpt>
      <trkpt lat="46.26348" lon="6.86916">
        <ele>1727</ele>
        <time>2021-02-14T12:43:10Z</time>
      </trkpt>
      <trkpt lat="46.26355" lon="6.86908">
        <ele>1727</ele>
        <time>2021-02-14T12:43:26Z</time>
      </trkpt>
      <trkpt lat="46.26359" lon="6.86903">
        <ele>1727</ele>
        <time>2021-02-14T12:43:31Z</time>
      </trkpt>
      <trkpt lat="46.26362" lon="6.86893">
        <ele>1729</ele>
        <time>2021-02-14T12:43:42Z</time>
      </trkpt>
      <trkpt lat="46.26367" lon="6.86885">
        <ele>1730</ele>
        <time>2021-02-14T12:43:55Z</time>
      </trkpt>
      <trkpt lat="46.26364" lon="6.8688">
        <ele>1729</ele>
        <time>2021-02-14T12:44:43Z</time>
      </trkpt>
      <trkpt lat="46.2637" lon="6.86876">
        <ele>1730</ele>
        <time>2021-02-14T12:45:20Z</time>
      </trkpt>
      <trkpt lat="46.26376" lon="6.86872">
        <ele>1730</ele>
        <time>2021-02-14T12:45:30Z</time>
      </trkpt>
      <trkpt lat="46.26382" lon="6.86868">
        <ele>1729</ele>
        <time>2021-02-14T12:45:40Z</time>
      </trkpt>
      <trkpt lat="46.26388" lon="6.86866">
        <ele>1727</ele>
        <time>2021-02-14T12:45:55Z</time>
      </trkpt>
      <trkpt lat="46.26394" lon="6.86861">
        <ele>1729</ele>
        <time>2021-02-14T12:46:25Z</time>
      </trkpt>
      <trkpt lat="46.26402" lon="6.86857">
        <ele>1730</ele>
        <time>2021-02-14T12:46:35Z</time>
      </trkpt>
      <trkpt lat="46.26405" lon="6.86856">
        <ele>1729</ele>
        <time>2021-02-14T12:46:40Z</time>
      </trkpt>
      <trkpt lat="46.26412" lon="6.86851">
        <ele>1730</ele>
        <time>2021-02-14T12:46:50Z</time>
      </trkpt>
      <trkpt lat="46.26419" lon="6.86847">
        <ele>1729</ele>
        <time>2021-02-14T12:47:00Z</time>
      </trkpt>
      <trkpt lat="46.26425" lon="6.86841">
        <ele>1729</ele>
        <time>2021-02-14T12:47:10Z</time>
      </trkpt>
      <trkpt lat="46.26432" lon="6.86835">
        <ele>1729</ele>
        <time>2021-02-14T12:47:20Z</time>
      </trkpt>
      <trkpt lat="46.2644" lon="6.86829">
        <ele>1728</ele>
        <time>2021-02-14T12:47:30Z</time>
      </trkpt>
      <trkpt lat="46.2645" lon="6.86823">
        <ele>1727</ele>
        <time>2021-02-14T12:47:40Z</time>
      </trkpt>
      <trkpt lat="46.26458" lon="6.86815">
        <ele>1728</ele>
        <time>2021-02-14T12:47:50Z</time>
      </trkpt>
      <trkpt lat="46.26466" lon="6.8681">
        <ele>1728</ele>
        <time>2021-02-14T12:48:00Z</time>
      </trkpt>
      <trkpt lat="46.26472" lon="6.86805">
        <ele>1729</ele>
        <time>2021-02-14T12:48:10Z</time>
      </trkpt>
      <trkpt lat="46.2648" lon="6.86798">
        <ele>1730</ele>
        <time>2021-02-14T12:48:20Z</time>
      </trkpt>
      <trkpt lat="46.26487" lon="6.86793">
        <ele>1731</ele>
        <time>2021-02-14T12:48:30Z</time>
      </trkpt>
      <trkpt lat="46.26494" lon="6.86788">
        <ele>1732</ele>
        <time>2021-02-14T12:48:40Z</time>
      </trkpt>
      <trkpt lat="46.26501" lon="6.86782">
        <ele>1731</ele>
        <time>2021-02-14T12:48:50Z</time>
      </trkpt>
      <trkpt lat="46.26505" lon="6.86779">
        <ele>1733</ele>
        <time>2021-02-14T12:49:00Z</time>
      </trkpt>
      <trkpt lat="46.26512" lon="6.86774">
        <ele>1733</ele>
        <time>2021-02-14T12:49:20Z</time>
      </trkpt>
      <trkpt lat="46.26516" lon="6.86767">
        <ele>1734</ele>
        <time>2021-02-14T12:49:45Z</time>
      </trkpt>
      <trkpt lat="46.26518" lon="6.86761">
        <ele>1733</ele>
        <time>2021-02-14T12:50:05Z</time>
      </trkpt>
      <trkpt lat="46.26522" lon="6.86748">
        <ele>1733</ele>
        <time>2021-02-14T12:50:15Z</time>
      </trkpt>
      <trkpt lat="46.26524" lon="6.86741">
        <ele>1734</ele>
        <time>2021-02-14T12:50:20Z</time>
      </trkpt>
      <trkpt lat="46.26529" lon="6.86729">
        <ele>1735</ele>
        <time>2021-02-14T12:50:30Z</time>
      </trkpt>
      <trkpt lat="46.26533" lon="6.86717">
        <ele>1734</ele>
        <time>2021-02-14T12:50:40Z</time>
      </trkpt>
      <trkpt lat="46.26536" lon="6.86704">
        <ele>1733</ele>
        <time>2021-02-14T12:50:50Z</time>
      </trkpt>
      <trkpt lat="46.26542" lon="6.86691">
        <ele>1734</ele>
        <time>2021-02-14T12:51:00Z</time>
      </trkpt>
      <trkpt lat="46.26545" lon="6.86678">
        <ele>1734</ele>
        <time>2021-02-14T12:51:10Z</time>
      </trkpt>
      <trkpt lat="46.26549" lon="6.86666">
        <ele>1734</ele>
        <time>2021-02-14T12:51:20Z</time>
      </trkpt>
      <trkpt lat="46.26553" lon="6.86654">
        <ele>1735</ele>
        <time>2021-02-14T12:51:30Z</time>
      </trkpt>
      <trkpt lat="46.26557" lon="6.86643">
        <ele>1734</ele>
        <time>2021-02-14T12:51:40Z</time>
      </trkpt>
      <trkpt lat="46.26559" lon="6.86629">
        <ele>1735</ele>
        <time>2021-02-14T12:51:50Z</time>
      </trkpt>
      <trkpt lat="46.26561" lon="6.86616">
        <ele>1736</ele>
        <time>2021-02-14T12:52:00Z</time>
      </trkpt>
      <trkpt lat="46.26561" lon="6.86602">
        <ele>1736</ele>
        <time>2021-02-14T12:52:10Z</time>
      </trkpt>
      <trkpt lat="46.26557" lon="6.86588">
        <ele>1735</ele>
        <time>2021-02-14T12:52:20Z</time>
      </trkpt>
      <trkpt lat="46.26556" lon="6.86576">
        <ele>1735</ele>
        <time>2021-02-14T12:52:30Z</time>
      </trkpt>
      <trkpt lat="46.26555" lon="6.86563">
        <ele>1734</ele>
        <time>2021-02-14T12:52:40Z</time>
      </trkpt>
      <trkpt lat="46.26553" lon="6.86549">
        <ele>1733</ele>
        <time>2021-02-14T12:52:50Z</time>
      </trkpt>
      <trkpt lat="46.26551" lon="6.86536">
        <ele>1733</ele>
        <time>2021-02-14T12:53:00Z</time>
      </trkpt>
      <trkpt lat="46.26549" lon="6.86521">
        <ele>1733</ele>
        <time>2021-02-14T12:53:10Z</time>
      </trkpt>
      <trkpt lat="46.26547" lon="6.8651">
        <ele>1734</ele>
        <time>2021-02-14T12:53:20Z</time>
      </trkpt>
      <trkpt lat="46.26546" lon="6.86502">
        <ele>1735</ele>
        <time>2021-02-14T12:53:30Z</time>
      </trkpt>
      <trkpt lat="46.26545" lon="6.8649">
        <ele>1737</ele>
        <time>2021-02-14T12:53:46Z</time>
      </trkpt>
      <trkpt lat="46.26546" lon="6.86485">
        <ele>1736</ele>
        <time>2021-02-14T12:54:01Z</time>
      </trkpt>
      <trkpt lat="46.26544" lon="6.86474">
        <ele>1737</ele>
        <time>2021-02-14T12:54:16Z</time>
      </trkpt>
      <trkpt lat="46.26544" lon="6.86469">
        <ele>1738</ele>
        <time>2021-02-14T12:54:21Z</time>
      </trkpt>
      <trkpt lat="46.26545" lon="6.86461">
        <ele>1738</ele>
        <time>2021-02-14T12:54:41Z</time>
      </trkpt>
      <trkpt lat="46.26546" lon="6.86449">
        <ele>1739</ele>
        <time>2021-02-14T12:54:51Z</time>
      </trkpt>
      <trkpt lat="46.26545" lon="6.86439">
        <ele>1740</ele>
        <time>2021-02-14T12:55:01Z</time>
      </trkpt>
      <trkpt lat="46.26546" lon="6.86426">
        <ele>1741</ele>
        <time>2021-02-14T12:55:11Z</time>
      </trkpt>
      <trkpt lat="46.26546" lon="6.86415">
        <ele>1740</ele>
        <time>2021-02-14T12:55:21Z</time>
      </trkpt>
      <trkpt lat="46.26547" lon="6.86402">
        <ele>1741</ele>
        <time>2021-02-14T12:55:31Z</time>
      </trkpt>
      <trkpt lat="46.26548" lon="6.86391">
        <ele>1739</ele>
        <time>2021-02-14T12:55:41Z</time>
      </trkpt>
      <trkpt lat="46.2655" lon="6.86378">
        <ele>1740</ele>
        <time>2021-02-14T12:55:51Z</time>
      </trkpt>
      <trkpt lat="46.26552" lon="6.86366">
        <ele>1740</ele>
        <time>2021-02-14T12:56:01Z</time>
      </trkpt>
      <trkpt lat="46.26556" lon="6.86353">
        <ele>1739</ele>
        <time>2021-02-14T12:56:11Z</time>
      </trkpt>
      <trkpt lat="46.26559" lon="6.86341">
        <ele>1738</ele>
        <time>2021-02-14T12:56:21Z</time>
      </trkpt>
      <trkpt lat="46.26564" lon="6.86332">
        <ele>1736</ele>
        <time>2021-02-14T12:56:31Z</time>
      </trkpt>
      <trkpt lat="46.26571" lon="6.86321">
        <ele>1736</ele>
        <time>2021-02-14T12:56:41Z</time>
      </trkpt>
      <trkpt lat="46.26576" lon="6.86309">
        <ele>1734</ele>
        <time>2021-02-14T12:56:51Z</time>
      </trkpt>
      <trkpt lat="46.26582" lon="6.86299">
        <ele>1734</ele>
        <time>2021-02-14T12:57:01Z</time>
      </trkpt>
      <trkpt lat="46.26587" lon="6.86291">
        <ele>1734</ele>
        <time>2021-02-14T12:57:11Z</time>
      </trkpt>
      <trkpt lat="46.2659" lon="6.86282">
        <ele>1734</ele>
        <time>2021-02-14T12:57:18Z</time>
      </trkpt>
      <trkpt lat="46.26593" lon="6.86273">
        <ele>1734</ele>
        <time>2021-02-14T12:57:25Z</time>
      </trkpt>
      <trkpt lat="46.26598" lon="6.86262">
        <ele>1733</ele>
        <time>2021-02-14T12:57:35Z</time>
      </trkpt>
      <trkpt lat="46.26603" lon="6.86254">
        <ele>1733</ele>
        <time>2021-02-14T12:57:45Z</time>
      </trkpt>
      <trkpt lat="46.26608" lon="6.86246">
        <ele>1733</ele>
        <time>2021-02-14T12:57:55Z</time>
      </trkpt>
      <trkpt lat="46.26613" lon="6.86236">
        <ele>1733</ele>
        <time>2021-02-14T12:58:05Z</time>
      </trkpt>
      <trkpt lat="46.26617" lon="6.86226">
        <ele>1733</ele>
        <time>2021-02-14T12:58:15Z</time>
      </trkpt>
      <trkpt lat="46.26616" lon="6.86213">
        <ele>1734</ele>
        <time>2021-02-14T12:58:25Z</time>
      </trkpt>
      <trkpt lat="46.26618" lon="6.862">
        <ele>1735</ele>
        <time>2021-02-14T12:58:35Z</time>
      </trkpt>
      <trkpt lat="46.26617" lon="6.86189">
        <ele>1734</ele>
        <time>2021-02-14T12:58:45Z</time>
      </trkpt>
      <trkpt lat="46.26616" lon="6.86179">
        <ele>1733</ele>
        <time>2021-02-14T12:58:55Z</time>
      </trkpt>
      <trkpt lat="46.26619" lon="6.86167">
        <ele>1731</ele>
        <time>2021-02-14T12:59:05Z</time>
      </trkpt>
      <trkpt lat="46.26619" lon="6.86155">
        <ele>1729</ele>
        <time>2021-02-14T12:59:15Z</time>
      </trkpt>
      <trkpt lat="46.26621" lon="6.86144">
        <ele>1727</ele>
        <time>2021-02-14T12:59:25Z</time>
      </trkpt>
      <trkpt lat="46.26624" lon="6.86134">
        <ele>1723</ele>
        <time>2021-02-14T12:59:35Z</time>
      </trkpt>
      <trkpt lat="46.26626" lon="6.86119">
        <ele>1720</ele>
        <time>2021-02-14T12:59:45Z</time>
      </trkpt>
      <trkpt lat="46.26628" lon="6.86105">
        <ele>1717</ele>
        <time>2021-02-14T12:59:55Z</time>
      </trkpt>
      <trkpt lat="46.26626" lon="6.86094">
        <ele>1715</ele>
        <time>2021-02-14T13:00:05Z</time>
      </trkpt>
      <trkpt lat="46.26625" lon="6.8608">
        <ele>1712</ele>
        <time>2021-02-14T13:00:25Z</time>
      </trkpt>
      <trkpt lat="46.26628" lon="6.86066">
        <ele>1712</ele>
        <time>2021-02-14T13:00:35Z</time>
      </trkpt>
      <trkpt lat="46.26627" lon="6.86054">
        <ele>1709</ele>
        <time>2021-02-14T13:00:45Z</time>
      </trkpt>
      <trkpt lat="46.26627" lon="6.86041">
        <ele>1707</ele>
        <time>2021-02-14T13:00:55Z</time>
      </trkpt>
      <trkpt lat="46.26625" lon="6.86034">
        <ele>1706</ele>
        <time>2021-02-14T13:01:10Z</time>
      </trkpt>
      <trkpt lat="46.26625" lon="6.86023">
        <ele>1705</ele>
        <time>2021-02-14T13:01:20Z</time>
      </trkpt>
      <trkpt lat="46.26625" lon="6.86017">
        <ele>1705</ele>
        <time>2021-02-14T13:01:25Z</time>
      </trkpt>
      <trkpt lat="46.26625" lon="6.86006">
        <ele>1704</ele>
        <time>2021-02-14T13:01:35Z</time>
      </trkpt>
      <trkpt lat="46.26625" lon="6.85995">
        <ele>1703</ele>
        <time>2021-02-14T13:01:45Z</time>
      </trkpt>
      <trkpt lat="46.26627" lon="6.85983">
        <ele>1700</ele>
        <time>2021-02-14T13:01:55Z</time>
      </trkpt>
      <trkpt lat="46.26627" lon="6.85973">
        <ele>1698</ele>
        <time>2021-02-14T13:02:05Z</time>
      </trkpt>
      <trkpt lat="46.26628" lon="6.85962">
        <ele>1698</ele>
        <time>2021-02-14T13:02:15Z</time>
      </trkpt>
      <trkpt lat="46.26629" lon="6.85952">
        <ele>1696</ele>
        <time>2021-02-14T13:02:25Z</time>
      </trkpt>
      <trkpt lat="46.26629" lon="6.85944">
        <ele>1695</ele>
        <time>2021-02-14T13:02:35Z</time>
      </trkpt>
      <trkpt lat="46.26627" lon="6.85932">
        <ele>1695</ele>
        <time>2021-02-14T13:03:05Z</time>
      </trkpt>
      <trkpt lat="46.26627" lon="6.85923">
        <ele>1694</ele>
        <time>2021-02-14T13:03:15Z</time>
      </trkpt>
      <trkpt lat="46.26628" lon="6.85913">
        <ele>1692</ele>
        <time>2021-02-14T13:03:25Z</time>
      </trkpt>
      <trkpt lat="46.26628" lon="6.85903">
        <ele>1690</ele>
        <time>2021-02-14T13:03:35Z</time>
      </trkpt>
      <trkpt lat="46.26629" lon="6.85892">
        <ele>1689</ele>
        <time>2021-02-14T13:03:45Z</time>
      </trkpt>
      <trkpt lat="46.2663" lon="6.8588">
        <ele>1688</ele>
        <time>2021-02-14T13:03:55Z</time>
      </trkpt>
      <trkpt lat="46.2663" lon="6.85872">
        <ele>1687</ele>
        <time>2021-02-14T13:04:30Z</time>
      </trkpt>
      <trkpt lat="46.26629" lon="6.85861">
        <ele>1686</ele>
        <time>2021-02-14T13:04:40Z</time>
      </trkpt>
      <trkpt lat="46.26629" lon="6.85856">
        <ele>1686</ele>
        <time>2021-02-14T13:04:45Z</time>
      </trkpt>
      <trkpt lat="46.26628" lon="6.85846">
        <ele>1684</ele>
        <time>2021-02-14T13:04:55Z</time>
      </trkpt>
      <trkpt lat="46.26628" lon="6.85836">
        <ele>1683</ele>
        <time>2021-02-14T13:05:05Z</time>
      </trkpt>
      <trkpt lat="46.2663" lon="6.85826">
        <ele>1682</ele>
        <time>2021-02-14T13:05:15Z</time>
      </trkpt>
      <trkpt lat="46.26631" lon="6.85815">
        <ele>1680</ele>
        <time>2021-02-14T13:05:25Z</time>
      </trkpt>
      <trkpt lat="46.26632" lon="6.85808">
        <ele>1679</ele>
        <time>2021-02-14T13:05:35Z</time>
      </trkpt>
      <trkpt lat="46.26635" lon="6.85797">
        <ele>1677</ele>
        <time>2021-02-14T13:05:45Z</time>
      </trkpt>
      <trkpt lat="46.26637" lon="6.85786">
        <ele>1676</ele>
        <time>2021-02-14T13:05:55Z</time>
      </trkpt>
      <trkpt lat="46.26637" lon="6.85775">
        <ele>1676</ele>
        <time>2021-02-14T13:06:05Z</time>
      </trkpt>
      <trkpt lat="46.26634" lon="6.85764">
        <ele>1675</ele>
        <time>2021-02-14T13:06:15Z</time>
      </trkpt>
      <trkpt lat="46.26634" lon="6.85756">
        <ele>1671</ele>
        <time>2021-02-14T13:06:25Z</time>
      </trkpt>
      <trkpt lat="46.26634" lon="6.85746">
        <ele>1668</ele>
        <time>2021-02-14T13:06:30Z</time>
      </trkpt>
      <trkpt lat="46.2663" lon="6.85733">
        <ele>1666</ele>
        <time>2021-02-14T13:06:35Z</time>
      </trkpt>
      <trkpt lat="46.2663" lon="6.85721">
        <ele>1662</ele>
        <time>2021-02-14T13:06:40Z</time>
      </trkpt>
      <trkpt lat="46.26629" lon="6.85709">
        <ele>1659</ele>
        <time>2021-02-14T13:06:45Z</time>
      </trkpt>
      <trkpt lat="46.26629" lon="6.85697">
        <ele>1658</ele>
        <time>2021-02-14T13:07:00Z</time>
      </trkpt>
      <trkpt lat="46.26629" lon="6.8569">
        <ele>1657</ele>
        <time>2021-02-14T13:07:05Z</time>
      </trkpt>
      <trkpt lat="46.2663" lon="6.85678">
        <ele>1653</ele>
        <time>2021-02-14T13:07:15Z</time>
      </trkpt>
      <trkpt lat="46.26629" lon="6.85666">
        <ele>1651</ele>
        <time>2021-02-14T13:07:25Z</time>
      </trkpt>
      <trkpt lat="46.26628" lon="6.85653">
        <ele>1650</ele>
        <time>2021-02-14T13:07:40Z</time>
      </trkpt>
      <trkpt lat="46.26629" lon="6.85648">
        <ele>1650</ele>
        <time>2021-02-14T13:07:45Z</time>
      </trkpt>
      <trkpt lat="46.26631" lon="6.85636">
        <ele>1648</ele>
        <time>2021-02-14T13:07:55Z</time>
      </trkpt>
      <trkpt lat="46.2663" lon="6.85624">
        <ele>1647</ele>
        <time>2021-02-14T13:08:05Z</time>
      </trkpt>
      <trkpt lat="46.2663" lon="6.85611">
        <ele>1645</ele>
        <time>2021-02-14T13:08:15Z</time>
      </trkpt>
      <trkpt lat="46.26631" lon="6.85598">
        <ele>1644</ele>
        <time>2021-02-14T13:08:25Z</time>
      </trkpt>
      <trkpt lat="46.26632" lon="6.85586">
        <ele>1643</ele>
        <time>2021-02-14T13:08:35Z</time>
      </trkpt>
      <trkpt lat="46.26634" lon="6.85573">
        <ele>1642</ele>
        <time>2021-02-14T13:08:45Z</time>
      </trkpt>
      <trkpt lat="46.26635" lon="6.85567">
        <ele>1641</ele>
        <time>2021-02-14T13:09:05Z</time>
      </trkpt>
      <trkpt lat="46.26631" lon="6.8556">
        <ele>1640</ele>
        <time>2021-02-14T13:09:50Z</time>
      </trkpt>
      <trkpt lat="46.26628" lon="6.85555">
        <ele>1639</ele>
        <time>2021-02-14T13:09:59Z</time>
      </trkpt>
      <trkpt lat="46.26624" lon="6.85549">
        <ele>1639</ele>
        <time>2021-02-14T13:10:05Z</time>
      </trkpt>
      <trkpt lat="46.26619" lon="6.85543">
        <ele>1637</ele>
        <time>2021-02-14T13:10:15Z</time>
      </trkpt>
      <trkpt lat="46.26616" lon="6.85542">
        <ele>1637</ele>
        <time>2021-02-14T13:10:25Z</time>
      </trkpt>
      <trkpt lat="46.2662" lon="6.8554">
        <ele>1637</ele>
        <time>2021-02-14T13:10:45Z</time>
      </trkpt>
      <trkpt lat="46.26621" lon="6.85533">
        <ele>1634</ele>
        <time>2021-02-14T13:12:35Z</time>
      </trkpt>
      <trkpt lat="46.26627" lon="6.85535">
        <ele>1634</ele>
        <time>2021-02-14T13:13:05Z</time>
      </trkpt>
      <trkpt lat="46.26632" lon="6.85528">
        <ele>1633</ele>
        <time>2021-02-14T13:13:30Z</time>
      </trkpt>
      <trkpt lat="46.26637" lon="6.85518">
        <ele>1632</ele>
        <time>2021-02-14T13:13:40Z</time>
      </trkpt>
      <trkpt lat="46.26639" lon="6.85512">
        <ele>1630</ele>
        <time>2021-02-14T13:13:45Z</time>
      </trkpt>
      <trkpt lat="46.26642" lon="6.85503">
        <ele>1628</ele>
        <time>2021-02-14T13:13:55Z</time>
      </trkpt>
      <trkpt lat="46.2664" lon="6.85494">
        <ele>1626</ele>
        <time>2021-02-14T13:14:05Z</time>
      </trkpt>
      <trkpt lat="46.26639" lon="6.85482">
        <ele>1624</ele>
        <time>2021-02-14T13:14:20Z</time>
      </trkpt>
      <trkpt lat="46.2664" lon="6.85475">
        <ele>1623</ele>
        <time>2021-02-14T13:14:25Z</time>
      </trkpt>
      <trkpt lat="46.2664" lon="6.85463">
        <ele>1622</ele>
        <time>2021-02-14T13:14:35Z</time>
      </trkpt>
      <trkpt lat="46.26641" lon="6.85452">
        <ele>1617</ele>
        <time>2021-02-14T13:14:45Z</time>
      </trkpt>
      <trkpt lat="46.26644" lon="6.8544">
        <ele>1613</ele>
        <time>2021-02-14T13:14:55Z</time>
      </trkpt>
      <trkpt lat="46.26646" lon="6.85428">
        <ele>1610</ele>
        <time>2021-02-14T13:15:06Z</time>
      </trkpt>
      <trkpt lat="46.26646" lon="6.85415">
        <ele>1608</ele>
        <time>2021-02-14T13:15:17Z</time>
      </trkpt>
      <trkpt lat="46.26648" lon="6.85407">
        <ele>1607</ele>
        <time>2021-02-14T13:15:23Z</time>
      </trkpt>
      <trkpt lat="46.26649" lon="6.854">
        <ele>1605</ele>
        <time>2021-02-14T13:15:28Z</time>
      </trkpt>
      <trkpt lat="46.26651" lon="6.85387">
        <ele>1601</ele>
        <time>2021-02-14T13:16:21Z</time>
      </trkpt>
      <trkpt lat="46.26652" lon="6.85372">
        <ele>1597</ele>
        <time>2021-02-14T13:16:33Z</time>
      </trkpt>
      <trkpt lat="46.26653" lon="6.85358">
        <ele>1595</ele>
        <time>2021-02-14T13:16:45Z</time>
      </trkpt>
      <trkpt lat="46.26655" lon="6.85345">
        <ele>1592</ele>
        <time>2021-02-14T13:16:56Z</time>
      </trkpt>
      <trkpt lat="46.26656" lon="6.85334">
        <ele>1589</ele>
        <time>2021-02-14T13:17:06Z</time>
      </trkpt>
      <trkpt lat="46.26657" lon="6.85322">
        <ele>1588</ele>
        <time>2021-02-14T13:17:16Z</time>
      </trkpt>
      <trkpt lat="46.2666" lon="6.8531">
        <ele>1586</ele>
        <time>2021-02-14T13:17:26Z</time>
      </trkpt>
      <trkpt lat="46.26662" lon="6.85298">
        <ele>1585</ele>
        <time>2021-02-14T13:17:36Z</time>
      </trkpt>
      <trkpt lat="46.26663" lon="6.85288">
        <ele>1583</ele>
        <time>2021-02-14T13:17:46Z</time>
      </trkpt>
      <trkpt lat="46.26666" lon="6.85279">
        <ele>1583</ele>
        <time>2021-02-14T13:17:56Z</time>
      </trkpt>
      <trkpt lat="46.26671" lon="6.85269">
        <ele>1582</ele>
        <time>2021-02-14T13:18:06Z</time>
      </trkpt>
      <trkpt lat="46.26672" lon="6.85259">
        <ele>1581</ele>
        <time>2021-02-14T13:18:16Z</time>
      </trkpt>
      <trkpt lat="46.26674" lon="6.85247">
        <ele>1580</ele>
        <time>2021-02-14T13:18:26Z</time>
      </trkpt>
      <trkpt lat="46.26675" lon="6.85236">
        <ele>1578</ele>
        <time>2021-02-14T13:18:36Z</time>
      </trkpt>
      <trkpt lat="46.26676" lon="6.85222">
        <ele>1579</ele>
        <time>2021-02-14T13:18:46Z</time>
      </trkpt>
      <trkpt lat="46.26677" lon="6.85211">
        <ele>1577</ele>
        <time>2021-02-14T13:18:56Z</time>
      </trkpt>
      <trkpt lat="46.26678" lon="6.85199">
        <ele>1577</ele>
        <time>2021-02-14T13:19:06Z</time>
      </trkpt>
      <trkpt lat="46.26679" lon="6.85189">
        <ele>1577</ele>
        <time>2021-02-14T13:19:16Z</time>
      </trkpt>
      <trkpt lat="46.26679" lon="6.85182">
        <ele>1577</ele>
        <time>2021-02-14T13:19:36Z</time>
      </trkpt>
      <trkpt lat="46.2668" lon="6.85171">
        <ele>1576</ele>
        <time>2021-02-14T13:19:46Z</time>
      </trkpt>
      <trkpt lat="46.26682" lon="6.85162">
        <ele>1576</ele>
        <time>2021-02-14T13:19:56Z</time>
      </trkpt>
      <trkpt lat="46.26685" lon="6.85156">
        <ele>1576</ele>
        <time>2021-02-14T13:20:06Z</time>
      </trkpt>
      <trkpt lat="46.26691" lon="6.85149">
        <ele>1577</ele>
        <time>2021-02-14T13:20:56Z</time>
      </trkpt>
      <trkpt lat="46.26696" lon="6.85143">
        <ele>1574</ele>
        <time>2021-02-14T13:21:06Z</time>
      </trkpt>
      <trkpt lat="46.26701" lon="6.85137">
        <ele>1570</ele>
        <time>2021-02-14T13:21:16Z</time>
      </trkpt>
      <trkpt lat="46.26706" lon="6.85134">
        <ele>1570</ele>
        <time>2021-02-14T13:21:26Z</time>
      </trkpt>
      <trkpt lat="46.26714" lon="6.8513">
        <ele>1566</ele>
        <time>2021-02-14T13:21:36Z</time>
      </trkpt>
      <trkpt lat="46.26722" lon="6.85127">
        <ele>1564</ele>
        <time>2021-02-14T13:21:46Z</time>
      </trkpt>
      <trkpt lat="46.26729" lon="6.8512">
        <ele>1559</ele>
        <time>2021-02-14T13:21:56Z</time>
      </trkpt>
      <trkpt lat="46.26735" lon="6.85118">
        <ele>1557</ele>
        <time>2021-02-14T13:22:01Z</time>
      </trkpt>
      <trkpt lat="46.26742" lon="6.85114">
        <ele>1556</ele>
        <time>2021-02-14T13:22:06Z</time>
      </trkpt>
      <trkpt lat="46.26748" lon="6.85109">
        <ele>1553</ele>
        <time>2021-02-14T13:22:11Z</time>
      </trkpt>
      <trkpt lat="46.26753" lon="6.851">
        <ele>1551</ele>
        <time>2021-02-14T13:22:18Z</time>
      </trkpt>
      <trkpt lat="46.26757" lon="6.85089">
        <ele>1545</ele>
        <time>2021-02-14T13:22:28Z</time>
      </trkpt>
      <trkpt lat="46.26762" lon="6.85081">
        <ele>1540</ele>
        <time>2021-02-14T13:22:38Z</time>
      </trkpt>
      <trkpt lat="46.26772" lon="6.85073">
        <ele>1537</ele>
        <time>2021-02-14T13:22:48Z</time>
      </trkpt>
      <trkpt lat="46.26782" lon="6.85067">
        <ele>1533</ele>
        <time>2021-02-14T13:22:58Z</time>
      </trkpt>
      <trkpt lat="46.26786" lon="6.85062">
        <ele>1530</ele>
        <time>2021-02-14T13:23:08Z</time>
      </trkpt>
      <trkpt lat="46.26795" lon="6.85057">
        <ele>1527</ele>
        <time>2021-02-14T13:23:18Z</time>
      </trkpt>
      <trkpt lat="46.26801" lon="6.85053">
        <ele>1526</ele>
        <time>2021-02-14T13:23:23Z</time>
      </trkpt>
      <trkpt lat="46.26805" lon="6.85049">
        <ele>1524</ele>
        <time>2021-02-14T13:23:28Z</time>
      </trkpt>
      <trkpt lat="46.26814" lon="6.85044">
        <ele>1521</ele>
        <time>2021-02-14T13:23:38Z</time>
      </trkpt>
      <trkpt lat="46.26823" lon="6.85037">
        <ele>1516</ele>
        <time>2021-02-14T13:23:48Z</time>
      </trkpt>
      <trkpt lat="46.26831" lon="6.8503">
        <ele>1512</ele>
        <time>2021-02-14T13:23:58Z</time>
      </trkpt>
      <trkpt lat="46.26833" lon="6.85028">
        <ele>1510</ele>
        <time>2021-02-14T13:24:08Z</time>
      </trkpt>
      <trkpt lat="46.26841" lon="6.85027">
        <ele>1507</ele>
        <time>2021-02-14T13:24:28Z</time>
      </trkpt>
      <trkpt lat="46.26844" lon="6.85028">
        <ele>1506</ele>
        <time>2021-02-14T13:24:48Z</time>
      </trkpt>
      <trkpt lat="46.26857" lon="6.85024">
        <ele>1499</ele>
        <time>2021-02-14T13:26:43Z</time>
      </trkpt>
      <trkpt lat="46.26869" lon="6.85018">
        <ele>1492</ele>
        <time>2021-02-14T13:26:48Z</time>
      </trkpt>
      <trkpt lat="46.26878" lon="6.85014">
        <ele>1487</ele>
        <time>2021-02-14T13:26:53Z</time>
      </trkpt>
      <trkpt lat="46.26888" lon="6.85009">
        <ele>1484</ele>
        <time>2021-02-14T13:26:58Z</time>
      </trkpt>
      <trkpt lat="46.26896" lon="6.85006">
        <ele>1481</ele>
        <time>2021-02-14T13:27:03Z</time>
      </trkpt>
      <trkpt lat="46.26898" lon="6.85005">
        <ele>1479</ele>
        <time>2021-02-14T13:27:08Z</time>
      </trkpt>
      <trkpt lat="46.26905" lon="6.85003">
        <ele>1474</ele>
        <time>2021-02-14T13:27:18Z</time>
      </trkpt>
      <trkpt lat="46.26909" lon="6.85002">
        <ele>1474</ele>
        <time>2021-02-14T13:27:28Z</time>
      </trkpt>
      <trkpt lat="46.26915" lon="6.84998">
        <ele>1471</ele>
        <time>2021-02-14T13:29:23Z</time>
      </trkpt>
      <trkpt lat="46.26917" lon="6.84996">
        <ele>1470</ele>
        <time>2021-02-14T13:29:28Z</time>
      </trkpt>
      <trkpt lat="46.26923" lon="6.84993">
        <ele>1469</ele>
        <time>2021-02-14T13:29:42Z</time>
      </trkpt>
      <trkpt lat="46.26926" lon="6.84993">
        <ele>1468</ele>
        <time>2021-02-14T13:29:48Z</time>
      </trkpt>
      <trkpt lat="46.26935" lon="6.84989">
        <ele>1467</ele>
        <time>2021-02-14T13:29:58Z</time>
      </trkpt>
      <trkpt lat="46.26942" lon="6.84987">
        <ele>1465</ele>
        <time>2021-02-14T13:30:08Z</time>
      </trkpt>
      <trkpt lat="46.26951" lon="6.84986">
        <ele>1464</ele>
        <time>2021-02-14T13:30:18Z</time>
      </trkpt>
      <trkpt lat="46.26959" lon="6.84983">
        <ele>1463</ele>
        <time>2021-02-14T13:30:28Z</time>
      </trkpt>
      <trkpt lat="46.26967" lon="6.84978">
        <ele>1460</ele>
        <time>2021-02-14T13:30:38Z</time>
      </trkpt>
      <trkpt lat="46.26974" lon="6.84971">
        <ele>1460</ele>
        <time>2021-02-14T13:30:48Z</time>
      </trkpt>
      <trkpt lat="46.2698" lon="6.84964">
        <ele>1459</ele>
        <time>2021-02-14T13:30:58Z</time>
      </trkpt>
      <trkpt lat="46.26986" lon="6.84957">
        <ele>1458</ele>
        <time>2021-02-14T13:31:08Z</time>
      </trkpt>
      <trkpt lat="46.2699" lon="6.84949">
        <ele>1457</ele>
        <time>2021-02-14T13:31:18Z</time>
      </trkpt>
      <trkpt lat="46.26997" lon="6.84941">
        <ele>1456</ele>
        <time>2021-02-14T13:31:28Z</time>
      </trkpt>
      <trkpt lat="46.27003" lon="6.84932">
        <ele>1455</ele>
        <time>2021-02-14T13:31:38Z</time>
      </trkpt>
      <trkpt lat="46.27009" lon="6.84923">
        <ele>1452</ele>
        <time>2021-02-14T13:31:48Z</time>
      </trkpt>
      <trkpt lat="46.27015" lon="6.84916">
        <ele>1450</ele>
        <time>2021-02-14T13:31:58Z</time>
      </trkpt>
      <trkpt lat="46.27019" lon="6.84907">
        <ele>1450</ele>
        <time>2021-02-14T13:32:08Z</time>
      </trkpt>
      <trkpt lat="46.27022" lon="6.849">
        <ele>1448</ele>
        <time>2021-02-14T13:32:20Z</time>
      </trkpt>
      <trkpt lat="46.27028" lon="6.84893">
        <ele>1446</ele>
        <time>2021-02-14T13:32:29Z</time>
      </trkpt>
      <trkpt lat="46.27033" lon="6.84884">
        <ele>1445</ele>
        <time>2021-02-14T13:32:39Z</time>
      </trkpt>
      <trkpt lat="46.27036" lon="6.84878">
        <ele>1445</ele>
        <time>2021-02-14T13:32:44Z</time>
      </trkpt>
      <trkpt lat="46.27042" lon="6.84868">
        <ele>1445</ele>
        <time>2021-02-14T13:32:54Z</time>
      </trkpt>
      <trkpt lat="46.27047" lon="6.8486">
        <ele>1442</ele>
        <time>2021-02-14T13:33:04Z</time>
      </trkpt>
      <trkpt lat="46.27053" lon="6.84849">
        <ele>1440</ele>
        <time>2021-02-14T13:33:14Z</time>
      </trkpt>
      <trkpt lat="46.27059" lon="6.84839">
        <ele>1439</ele>
        <time>2021-02-14T13:33:24Z</time>
      </trkpt>
      <trkpt lat="46.27066" lon="6.84831">
        <ele>1439</ele>
        <time>2021-02-14T13:33:34Z</time>
      </trkpt>
      <trkpt lat="46.27072" lon="6.84823">
        <ele>1437</ele>
        <time>2021-02-14T13:33:44Z</time>
      </trkpt>
      <trkpt lat="46.27081" lon="6.84816">
        <ele>1436</ele>
        <time>2021-02-14T13:33:54Z</time>
      </trkpt>
      <trkpt lat="46.27088" lon="6.84808">
        <ele>1435</ele>
        <time>2021-02-14T13:34:04Z</time>
      </trkpt>
      <trkpt lat="46.27095" lon="6.84799">
        <ele>1433</ele>
        <time>2021-02-14T13:34:19Z</time>
      </trkpt>
      <trkpt lat="46.27098" lon="6.84795">
        <ele>1432</ele>
        <time>2021-02-14T13:34:24Z</time>
      </trkpt>
      <trkpt lat="46.27105" lon="6.84788">
        <ele>1432</ele>
        <time>2021-02-14T13:34:34Z</time>
      </trkpt>
      <trkpt lat="46.27112" lon="6.84781">
        <ele>1430</ele>
        <time>2021-02-14T13:34:44Z</time>
      </trkpt>
      <trkpt lat="46.27118" lon="6.84774">
        <ele>1428</ele>
        <time>2021-02-14T13:34:53Z</time>
      </trkpt>
      <trkpt lat="46.27125" lon="6.84765">
        <ele>1428</ele>
        <time>2021-02-14T13:35:04Z</time>
      </trkpt>
      <trkpt lat="46.27132" lon="6.84759">
        <ele>1428</ele>
        <time>2021-02-14T13:35:14Z</time>
      </trkpt>
      <trkpt lat="46.27136" lon="6.84753">
        <ele>1426</ele>
        <time>2021-02-14T13:35:24Z</time>
      </trkpt>
      <trkpt lat="46.27142" lon="6.84746">
        <ele>1426</ele>
        <time>2021-02-14T13:35:34Z</time>
      </trkpt>
      <trkpt lat="46.27148" lon="6.84737">
        <ele>1426</ele>
        <time>2021-02-14T13:35:44Z</time>
      </trkpt>
      <trkpt lat="46.27155" lon="6.84728">
        <ele>1426</ele>
        <time>2021-02-14T13:35:54Z</time>
      </trkpt>
      <trkpt lat="46.27162" lon="6.8472">
        <ele>1425</ele>
        <time>2021-02-14T13:36:04Z</time>
      </trkpt>
      <trkpt lat="46.2717" lon="6.84712">
        <ele>1423</ele>
        <time>2021-02-14T13:36:14Z</time>
      </trkpt>
      <trkpt lat="46.27176" lon="6.84703">
        <ele>1422</ele>
        <time>2021-02-14T13:36:24Z</time>
      </trkpt>
      <trkpt lat="46.27182" lon="6.84695">
        <ele>1422</ele>
        <time>2021-02-14T13:36:34Z</time>
      </trkpt>
      <trkpt lat="46.2719" lon="6.84687">
        <ele>1422</ele>
        <time>2021-02-14T13:36:44Z</time>
      </trkpt>
      <trkpt lat="46.27197" lon="6.84679">
        <ele>1421</ele>
        <time>2021-02-14T13:36:54Z</time>
      </trkpt>
      <trkpt lat="46.27203" lon="6.84672">
        <ele>1419</ele>
        <time>2021-02-14T13:37:04Z</time>
      </trkpt>
      <trkpt lat="46.27211" lon="6.84664">
        <ele>1418</ele>
        <time>2021-02-14T13:37:14Z</time>
      </trkpt>
      <trkpt lat="46.27217" lon="6.8466">
        <ele>1417</ele>
        <time>2021-02-14T13:37:23Z</time>
      </trkpt>
      <trkpt lat="46.27222" lon="6.84656">
        <ele>1417</ele>
        <time>2021-02-14T13:37:29Z</time>
      </trkpt>
      <trkpt lat="46.27226" lon="6.84651">
        <ele>1415</ele>
        <time>2021-02-14T13:37:39Z</time>
      </trkpt>
      <trkpt lat="46.27231" lon="6.84649">
        <ele>1415</ele>
        <time>2021-02-14T13:37:49Z</time>
      </trkpt>
      <trkpt lat="46.27234" lon="6.84653">
        <ele>1415</ele>
        <time>2021-02-14T13:38:04Z</time>
      </trkpt>
      <trkpt lat="46.27237" lon="6.84647">
        <ele>1413</ele>
        <time>2021-02-14T13:38:40Z</time>
      </trkpt>
      <trkpt lat="46.27238" lon="6.8464">
        <ele>1413</ele>
        <time>2021-02-14T13:38:51Z</time>
      </trkpt>
      <trkpt lat="46.27239" lon="6.84635">
        <ele>1411</ele>
        <time>2021-02-14T13:39:26Z</time>
      </trkpt>
      <trkpt lat="46.27241" lon="6.84631">
        <ele>1410</ele>
        <time>2021-02-14T13:39:36Z</time>
      </trkpt>
      <trkpt lat="46.27246" lon="6.84624">
        <ele>1410</ele>
        <time>2021-02-14T13:39:46Z</time>
      </trkpt>
      <trkpt lat="46.27251" lon="6.84626">
        <ele>1410</ele>
        <time>2021-02-14T13:39:56Z</time>
      </trkpt>
      <trkpt lat="46.27257" lon="6.84619">
        <ele>1408</ele>
        <time>2021-02-14T13:40:06Z</time>
      </trkpt>
      <trkpt lat="46.27263" lon="6.8461">
        <ele>1408</ele>
        <time>2021-02-14T13:40:16Z</time>
      </trkpt>
      <trkpt lat="46.27269" lon="6.84604">
        <ele>1406</ele>
        <time>2021-02-14T13:40:26Z</time>
      </trkpt>
      <trkpt lat="46.27271" lon="6.84596">
        <ele>1406</ele>
        <time>2021-02-14T13:40:36Z</time>
      </trkpt>
      <trkpt lat="46.27276" lon="6.84591">
        <ele>1403</ele>
        <time>2021-02-14T13:40:46Z</time>
      </trkpt>
      <trkpt lat="46.27277" lon="6.84585">
        <ele>1402</ele>
        <time>2021-02-14T13:40:56Z</time>
      </trkpt>
      <trkpt lat="46.2728" lon="6.84577">
        <ele>1401</ele>
        <time>2021-02-14T13:41:06Z</time>
      </trkpt>
      <trkpt lat="46.27283" lon="6.84568">
        <ele>1400</ele>
        <time>2021-02-14T13:41:15Z</time>
      </trkpt>
      <trkpt lat="46.27285" lon="6.84563">
        <ele>1399</ele>
        <time>2021-02-14T13:41:21Z</time>
      </trkpt>
      <trkpt lat="46.27291" lon="6.84555">
        <ele>1398</ele>
        <time>2021-02-14T13:41:31Z</time>
      </trkpt>
      <trkpt lat="46.27293" lon="6.84551">
        <ele>1398</ele>
        <time>2021-02-14T13:41:36Z</time>
      </trkpt>
      <trkpt lat="46.27295" lon="6.8454">
        <ele>1395</ele>
        <time>2021-02-14T13:41:46Z</time>
      </trkpt>
      <trkpt lat="46.27295" lon="6.84532">
        <ele>1392</ele>
        <time>2021-02-14T13:41:56Z</time>
      </trkpt>
      <trkpt lat="46.27295" lon="6.84521">
        <ele>1389</ele>
        <time>2021-02-14T13:42:11Z</time>
      </trkpt>
      <trkpt lat="46.27294" lon="6.84518">
        <ele>1389</ele>
        <time>2021-02-14T13:42:16Z</time>
      </trkpt>
      <trkpt lat="46.27295" lon="6.84506">
        <ele>1383</ele>
        <time>2021-02-14T13:42:31Z</time>
      </trkpt>
      <trkpt lat="46.27295" lon="6.84497">
        <ele>1381</ele>
        <time>2021-02-14T13:42:41Z</time>
      </trkpt>
      <trkpt lat="46.27294" lon="6.84492">
        <ele>1380</ele>
        <time>2021-02-14T13:43:06Z</time>
      </trkpt>
      <trkpt lat="46.27296" lon="6.84484">
        <ele>1381</ele>
        <time>2021-02-14T13:43:16Z</time>
      </trkpt>
      <trkpt lat="46.27303" lon="6.84475">
        <ele>1379</ele>
        <time>2021-02-14T13:43:26Z</time>
      </trkpt>
      <trkpt lat="46.27308" lon="6.84477">
        <ele>1378</ele>
        <time>2021-02-14T13:43:36Z</time>
      </trkpt>
      <trkpt lat="46.27308" lon="6.84473">
        <ele>1377</ele>
        <time>2021-02-14T13:43:56Z</time>
      </trkpt>
      <trkpt lat="46.27312" lon="6.84467">
        <ele>1373</ele>
        <time>2021-02-14T13:44:06Z</time>
      </trkpt>
      <trkpt lat="46.27317" lon="6.84458">
        <ele>1370</ele>
        <time>2021-02-14T13:44:16Z</time>
      </trkpt>
      <trkpt lat="46.2732" lon="6.84447">
        <ele>1366</ele>
        <time>2021-02-14T13:44:26Z</time>
      </trkpt>
      <trkpt lat="46.27321" lon="6.84437">
        <ele>1364</ele>
        <time>2021-02-14T13:44:36Z</time>
      </trkpt>
      <trkpt lat="46.27319" lon="6.84426">
        <ele>1362</ele>
        <time>2021-02-14T13:44:46Z</time>
      </trkpt>
      <trkpt lat="46.27321" lon="6.84417">
        <ele>1360</ele>
        <time>2021-02-14T13:44:56Z</time>
      </trkpt>
      <trkpt lat="46.27323" lon="6.8441">
        <ele>1357</ele>
        <time>2021-02-14T13:45:11Z</time>
      </trkpt>
      <trkpt lat="46.27323" lon="6.84408">
        <ele>1355</ele>
        <time>2021-02-14T13:45:36Z</time>
      </trkpt>
      <trkpt lat="46.27327" lon="6.84406">
        <ele>1353</ele>
        <time>2021-02-14T13:46:24Z</time>
      </trkpt>
      <trkpt lat="46.27335" lon="6.84402">
        <ele>1354</ele>
        <time>2021-02-14T13:46:34Z</time>
      </trkpt>
      <trkpt lat="46.27345" lon="6.84398">
        <ele>1355</ele>
        <time>2021-02-14T13:46:44Z</time>
      </trkpt>
      <trkpt lat="46.27351" lon="6.84393">
        <ele>1355</ele>
        <time>2021-02-14T13:46:52Z</time>
      </trkpt>
      <trkpt lat="46.27361" lon="6.84386">
        <ele>1355</ele>
        <time>2021-02-14T13:47:04Z</time>
      </trkpt>
      <trkpt lat="46.27366" lon="6.8438">
        <ele>1354</ele>
        <time>2021-02-14T13:47:12Z</time>
      </trkpt>
    </trkseg>
  </trk>
</gpx>